Time,TemperatureF,DewpointF,PressureIn,WindDirection,WindDirectionDegrees,WindSpeedMPH,WindSpeedGustMPH,Humidity,HourlyPrecipIn,Conditions,Clouds,dailyrainin,SoftwareType,DateUTC
2013-01-01 00:00:00,48.1,34.9,30.07,SSW,194,1.0,5.0,60,0.00,,,0.00,Wunderground v.1.15,2013-01-01 05:00:00,
2013-01-01 00:07:00,48.0,34.3,30.07,SSW,192,2.0,3.0,59,0.00,,,0.00,Wunderground v.1.15,2013-01-01 05:07:00,
2013-01-01 00:08:00,48.0,34.3,30.07,South,191,3.0,3.0,59,0.00,,,0.00,Wunderground v.1.15,2013-01-01 05:08:00,
2013-01-01 00:10:00,48.1,34.0,30.07,South,186,6.0,6.0,58,0.00,,,0.00,Wunderground v.1.15,2013-01-01 05:10:00,
2013-01-01 00:11:00,48.1,34.0,30.07,South,186,3.0,6.0,58,0.00,,,0.00,Wunderground v.1.15,2013-01-01 05:11:00,
2013-01-01 00:12:00,48.2,34.1,30.07,South,187,3.0,6.0,58,0.00,,,0.00,Wunderground v.1.15,2013-01-01 05:12:00,
2013-01-01 00:16:00,48.4,34.7,30.07,South,184,2.0,6.0,59,0.00,,,0.00,Wunderground v.1.15,2013-01-01 05:16:00,
2013-01-01 00:17:00,48.3,34.6,30.07,South,184,2.0,6.0,59,0.00,,,0.00,Wunderground v.1.15,2013-01-01 05:17:00,
2013-01-01 00:20:00,48.1,35.3,30.07,South,184,0.0,3.0,61,0.00,,,0.00,Wunderground v.1.15,2013-01-01 05:20:00,
2013-01-01 00:23:00,47.7,35.7,30.08,South,184,1.0,3.0,63,0.00,,,0.00,Wunderground v.1.15,2013-01-01 05:23:00,
2013-01-01 00:24:00,47.5,35.9,30.08,South,183,0.0,3.0,64,0.00,,,0.00,Wunderground v.1.15,2013-01-01 05:24:00,
2013-01-01 00:25:00,47.4,35.8,30.08,South,184,0.0,3.0,64,0.00,,,0.00,Wunderground v.1.15,2013-01-01 05:25:00,
2013-01-01 00:26:00,47.4,35.8,30.08,South,184,0.0,3.0,64,0.00,,,0.00,Wunderground v.1.15,2013-01-01 05:26:00,
2013-01-01 00:32:00,46.7,36.3,30.08,South,184,2.0,2.0,67,0.00,,,0.00,Wunderground v.1.15,2013-01-01 05:32:00,
2013-01-01 00:34:00,46.4,36.0,30.08,South,184,1.0,2.0,67,0.00,,,0.00,Wunderground v.1.15,2013-01-01 05:34:00,
2013-01-01 00:37:00,46.1,35.0,30.08,South,184,1.0,2.0,65,0.00,,,0.00,Wunderground v.1.15,2013-01-01 05:37:00,
2013-01-01 00:40:00,45.9,36.7,30.09,South,184,0.0,1.0,70,0.00,,,0.00,Wunderground v.1.15,2013-01-01 05:40:00,
2013-01-01 00:41:00,45.8,37.3,30.09,South,184,1.0,1.0,72,0.00,,,0.00,Wunderground v.1.15,2013-01-01 05:41:00,
2013-01-01 00:46:00,45.2,36.4,30.10,South,184,1.0,2.0,71,0.00,,,0.00,Wunderground v.1.15,2013-01-01 05:46:00,
2013-01-01 00:49:00,45.0,35.4,30.08,South,184,0.0,2.0,69,0.00,,,0.00,Wunderground v.1.15,2013-01-01 05:49:00,
2013-01-01 00:50:00,45.0,36.2,30.08,South,183,0.0,1.0,71,0.00,,,0.00,Wunderground v.1.15,2013-01-01 05:50:00,
2013-01-01 00:52:00,45.0,35.4,30.08,South,184,1.0,1.0,69,0.00,,,0.00,Wunderground v.1.15,2013-01-01 05:52:00,
2013-01-01 00:57:00,44.8,37.4,30.06,South,184,0.0,1.0,75,0.00,,,0.00,Wunderground v.1.15,2013-01-01 05:57:00,
2013-01-01 01:01:00,44.5,35.7,30.06,South,183,0.0,0.0,71,0.00,,,0.00,Wunderground v.1.15,2013-01-01 06:01:00,
2013-01-01 01:04:00,44.5,35.0,30.06,South,184,0.0,0.0,69,0.00,,,0.00,Wunderground v.1.15,2013-01-01 06:04:00,
2013-01-01 01:08:00,44.7,35.1,30.07,South,184,1.0,1.0,69,0.00,,,0.00,Wunderground v.1.15,2013-01-01 06:08:00,
2013-01-01 01:09:00,44.8,35.2,30.07,South,184,0.0,1.0,69,0.00,,,0.00,Wunderground v.1.15,2013-01-01 06:09:00,
2013-01-01 01:10:00,44.9,35.3,30.07,South,184,2.0,2.0,69,0.00,,,0.00,Wunderground v.1.15,2013-01-01 06:10:00,
2013-01-01 01:11:00,45.0,35.1,30.07,South,183,1.0,2.0,68,0.00,,,0.00,Wunderground v.1.15,2013-01-01 06:11:00,
2013-01-01 01:17:00,45.1,36.3,30.07,South,184,1.0,3.0,71,0.00,,,0.00,Wunderground v.1.15,2013-01-01 06:17:00,
2013-01-01 01:18:00,45.0,36.5,30.07,South,183,1.0,3.0,72,0.00,,,0.00,Wunderground v.1.15,2013-01-01 06:18:00,
2013-01-01 01:24:00,44.9,35.0,30.05,South,184,1.0,2.0,68,0.00,,,0.00,Wunderground v.1.15,2013-01-01 06:24:00,
2013-01-01 01:25:00,44.9,35.0,30.05,South,184,0.0,2.0,68,0.00,,,0.00,Wunderground v.1.15,2013-01-01 06:25:00,
2013-01-01 01:31:00,45.0,35.8,30.04,South,184,0.0,1.0,70,0.00,,,0.00,Wunderground v.1.15,2013-01-01 06:31:00,
2013-01-01 01:32:00,45.1,35.9,30.04,South,184,0.0,1.0,70,0.00,,,0.00,Wunderground v.1.15,2013-01-01 06:32:00,
2013-01-01 01:35:00,45.1,35.9,30.04,South,183,0.0,1.0,70,0.00,,,0.00,Wunderground v.1.15,2013-01-01 06:35:00,
2013-01-01 01:37:00,45.1,35.2,30.03,South,184,0.0,1.0,68,0.00,,,0.00,Wunderground v.1.15,2013-01-01 06:37:00,
2013-01-01 01:38:00,45.1,35.5,30.03,South,184,0.0,1.0,69,0.00,,,0.00,Wunderground v.1.15,2013-01-01 06:38:00,
2013-01-01 01:42:00,45.2,36.0,30.04,South,183,3.0,3.0,70,0.00,,,0.00,Wunderground v.1.15,2013-01-01 06:42:00,
2013-01-01 01:43:00,45.2,36.4,30.04,South,184,3.0,3.0,71,0.00,,,0.00,Wunderground v.1.15,2013-01-01 06:43:00,
2013-01-01 01:47:00,45.0,37.2,30.05,SSW,192,0.0,3.0,74,0.00,,,0.00,Wunderground v.1.15,2013-01-01 06:47:00,
2013-01-01 01:48:00,45.0,37.2,30.05,SSW,192,1.0,3.0,74,0.00,,,0.00,Wunderground v.1.15,2013-01-01 06:48:00,
2013-01-01 01:49:00,44.8,36.3,30.05,South,191,1.0,3.0,72,0.00,,,0.00,Wunderground v.1.15,2013-01-01 06:49:00,
2013-01-01 01:51:00,44.8,36.7,30.05,SSW,192,2.0,2.0,73,0.00,,,0.00,Wunderground v.1.15,2013-01-01 06:51:00,
2013-01-01 01:53:00,45.0,37.2,30.05,South,191,1.0,2.0,74,0.00,,,0.00,Wunderground v.1.15,2013-01-01 06:53:00,
2013-01-01 01:57:00,45.4,37.9,30.04,SSW,192,1.0,3.0,75,0.00,,,0.00,Wunderground v.1.15,2013-01-01 06:57:00,
2013-01-01 01:59:00,45.4,37.9,30.03,SSW,192,0.0,3.0,75,0.00,,,0.00,Wunderground v.1.15,2013-01-01 06:59:00,
2013-01-01 02:01:00,45.5,38.0,30.03,SSW,192,2.0,2.0,75,0.00,,,0.00,Wunderground v.1.15,2013-01-01 07:01:00,
2013-01-01 02:02:00,45.6,38.1,30.03,SSW,192,1.0,2.0,75,0.00,,,0.00,Wunderground v.1.15,2013-01-01 07:02:00,
2013-01-01 02:04:00,45.7,38.2,30.03,SSW,192,1.0,2.0,75,0.00,,,0.00,Wunderground v.1.15,2013-01-01 07:04:00,
2013-01-01 02:06:00,45.9,38.4,30.03,SSW,192,1.0,2.0,75,0.00,,,0.00,Wunderground v.1.15,2013-01-01 07:06:00,
2013-01-01 02:07:00,46.0,38.2,30.04,South,191,0.0,2.0,74,0.00,,,0.00,Wunderground v.1.15,2013-01-01 07:07:00,
2013-01-01 02:09:00,46.1,38.3,30.03,South,191,0.0,2.0,74,0.00,,,0.00,Wunderground v.1.15,2013-01-01 07:09:00,
2013-01-01 02:11:00,46.2,38.4,30.04,South,191,2.0,2.0,74,0.00,,,0.00,Wunderground v.1.15,2013-01-01 07:11:00,
2013-01-01 02:13:00,46.2,38.4,30.03,SSW,192,1.0,2.0,74,0.00,,,0.00,Wunderground v.1.15,2013-01-01 07:13:00,
2013-01-01 02:14:00,46.3,38.5,30.04,South,191,3.0,3.0,74,0.00,,,0.00,Wunderground v.1.15,2013-01-01 07:14:00,
2013-01-01 02:16:00,46.5,38.3,30.04,South,191,1.0,3.0,73,0.00,,,0.00,Wunderground v.1.15,2013-01-01 07:16:00,
2013-01-01 02:18:00,46.6,38.4,30.04,South,191,0.0,3.0,73,0.00,,,0.00,Wunderground v.1.15,2013-01-01 07:18:00,
2013-01-01 02:20:00,46.7,38.5,30.03,South,191,0.0,1.0,73,0.00,,,0.00,Wunderground v.1.15,2013-01-01 07:20:00,
2013-01-01 02:21:00,46.7,38.9,30.03,South,191,0.0,1.0,74,0.00,,,0.00,Wunderground v.1.15,2013-01-01 07:21:00,
2013-01-01 02:23:00,46.8,38.6,30.04,South,191,0.0,2.0,73,0.00,,,0.00,Wunderground v.1.15,2013-01-01 07:23:00,
2013-01-01 02:25:00,46.9,38.7,30.04,South,191,0.0,3.0,73,0.00,,,0.00,Wunderground v.1.15,2013-01-01 07:25:00,
2013-01-01 02:26:00,47.0,38.8,30.04,South,191,2.0,3.0,73,0.00,,,0.00,Wunderground v.1.15,2013-01-01 07:26:00,
2013-01-01 02:27:00,47.0,38.8,30.04,South,191,2.0,3.0,73,0.00,,,0.00,Wunderground v.1.15,2013-01-01 07:27:00,
2013-01-01 02:28:00,47.0,38.8,30.04,South,191,0.0,3.0,73,0.00,,,0.00,Wunderground v.1.15,2013-01-01 07:28:00,
2013-01-01 02:30:00,47.0,38.8,30.05,SSW,192,2.0,3.0,73,0.00,,,0.00,Wunderground v.1.15,2013-01-01 07:30:00,
2013-01-01 02:31:00,47.0,38.8,30.05,South,191,3.0,3.0,73,0.00,,,0.00,Wunderground v.1.15,2013-01-01 07:31:00,
2013-01-01 02:32:00,46.9,39.0,30.05,South,191,2.0,3.0,74,0.00,,,0.00,Wunderground v.1.15,2013-01-01 07:32:00,
2013-01-01 02:33:00,46.8,38.9,30.05,SSW,192,1.0,3.0,74,0.00,,,0.00,Wunderground v.1.15,2013-01-01 07:33:00,
2013-01-01 02:35:00,46.3,38.8,30.05,SSW,192,2.0,3.0,75,0.00,,,0.00,Wunderground v.1.15,2013-01-01 07:35:00,
2013-01-01 02:37:00,46.1,38.3,30.05,SSW,192,0.0,3.0,74,0.00,,,0.00,Wunderground v.1.15,2013-01-01 07:37:00,
2013-01-01 02:38:00,45.9,38.1,30.05,SSW,192,1.0,3.0,74,0.00,,,0.00,Wunderground v.1.15,2013-01-01 07:38:00,
2013-01-01 02:40:00,45.7,38.2,30.06,South,191,1.0,2.0,75,0.00,,,0.00,Wunderground v.1.15,2013-01-01 07:40:00,
2013-01-01 02:42:00,45.5,38.4,30.06,South,191,2.0,3.0,76,0.00,,,0.00,Wunderground v.1.15,2013-01-01 07:42:00,
2013-01-01 02:43:00,45.4,38.6,30.06,South,191,0.0,3.0,77,0.00,,,0.00,Wunderground v.1.15,2013-01-01 07:43:00,
2013-01-01 02:46:00,45.3,39.2,30.06,SSW,192,0.0,3.0,79,0.00,,,0.00,Wunderground v.1.15,2013-01-01 07:46:00,
2013-01-01 02:47:00,45.1,39.3,30.06,South,191,3.0,4.0,80,0.00,,,0.00,Wunderground v.1.15,2013-01-01 07:47:00,
2013-01-01 02:48:00,45.0,39.2,30.06,South,191,1.0,4.0,80,0.00,,,0.00,Wunderground v.1.15,2013-01-01 07:48:00,
2013-01-01 02:49:00,45.0,39.5,30.06,South,191,1.0,4.0,81,0.00,,,0.00,Wunderground v.1.15,2013-01-01 07:49:00,
2013-01-01 02:51:00,44.8,39.6,30.06,SSW,192,1.0,1.0,82,0.00,,,0.00,Wunderground v.1.15,2013-01-01 07:51:00,
2013-01-01 02:52:00,44.7,39.5,30.06,South,191,0.0,2.0,82,0.00,,,0.00,Wunderground v.1.15,2013-01-01 07:52:00,
2013-01-01 02:53:00,44.6,39.4,30.06,SSW,192,0.0,2.0,82,0.00,,,0.00,Wunderground v.1.15,2013-01-01 07:53:00,
2013-01-01 02:54:00,44.5,39.3,30.06,South,191,2.0,2.0,82,0.00,,,0.00,Wunderground v.1.15,2013-01-01 07:54:00,
2013-01-01 02:56:00,44.3,39.2,30.06,SSW,192,1.0,3.0,82,0.00,,,0.00,Wunderground v.1.15,2013-01-01 07:56:00,
2013-01-01 02:57:00,44.2,39.1,30.05,SSW,192,0.0,3.0,82,0.00,,,0.00,Wunderground v.1.15,2013-01-01 07:57:00,
2013-01-01 02:58:00,44.1,39.0,30.05,SSW,192,0.0,3.0,82,0.00,,,0.00,Wunderground v.1.15,2013-01-01 07:58:00,
2013-01-01 02:59:00,44.1,39.0,30.05,SSW,192,0.0,3.0,82,0.00,,,0.00,Wunderground v.1.15,2013-01-01 07:59:00,
2013-01-01 03:01:00,43.8,38.3,30.05,SSW,192,0.0,1.0,81,0.00,,,0.00,Wunderground v.1.15,2013-01-01 08:01:00,
2013-01-01 03:02:00,43.8,38.3,30.05,South,191,0.0,1.0,81,0.00,,,0.00,Wunderground v.1.15,2013-01-01 08:02:00,
2013-01-01 03:04:00,43.7,38.3,30.05,SSW,192,0.0,1.0,81,0.00,,,0.00,Wunderground v.1.15,2013-01-01 08:04:00,
2013-01-01 03:07:00,43.6,38.5,30.05,South,191,0.0,1.0,82,0.00,,,0.00,Wunderground v.1.15,2013-01-01 08:07:00,
2013-01-01 03:09:00,43.5,38.1,30.05,SSW,192,0.0,1.0,81,0.00,,,0.00,Wunderground v.1.15,2013-01-01 08:09:00,
2013-01-01 03:12:00,43.6,38.2,30.04,South,191,2.0,3.0,81,0.00,,,0.00,Wunderground v.1.15,2013-01-01 08:12:00,
2013-01-01 03:13:00,43.6,38.2,30.04,SSW,192,1.0,3.0,81,0.00,,,0.00,Wunderground v.1.15,2013-01-01 08:13:00,
2013-01-01 03:14:00,43.6,38.5,30.04,SSW,192,1.0,3.0,82,0.00,,,0.00,Wunderground v.1.15,2013-01-01 08:14:00,
2013-01-01 03:17:00,43.6,38.5,30.04,SSW,192,0.0,3.0,82,0.00,,,0.00,Wunderground v.1.15,2013-01-01 08:17:00,
2013-01-01 03:19:00,43.6,38.5,30.03,SSW,192,0.0,3.0,82,0.00,,,0.00,Wunderground v.1.15,2013-01-01 08:19:00,
2013-01-01 03:23:00,43.6,39.1,30.04,South,191,0.0,1.0,84,0.00,,,0.00,Wunderground v.1.15,2013-01-01 08:23:00,
2013-01-01 03:24:00,43.5,39.0,30.04,SSW,192,0.0,1.0,84,0.00,,,0.00,Wunderground v.1.15,2013-01-01 08:24:00,
2013-01-01 03:28:00,43.4,39.2,30.04,South,191,2.0,2.0,85,0.00,,,0.00,Wunderground v.1.15,2013-01-01 08:28:00,
2013-01-01 03:29:00,43.4,38.9,30.04,SSW,192,1.0,2.0,84,0.00,,,0.00,Wunderground v.1.15,2013-01-01 08:29:00,
2013-01-01 03:33:00,43.5,39.0,30.04,SSW,192,2.0,2.0,84,0.00,,,0.00,Wunderground v.1.15,2013-01-01 08:33:00,
2013-01-01 03:34:00,43.6,39.1,30.04,South,191,2.0,2.0,84,0.00,,,0.00,Wunderground v.1.15,2013-01-01 08:34:00,
2013-01-01 03:35:00,43.6,39.1,30.04,SSW,192,2.0,2.0,84,0.00,,,0.00,Wunderground v.1.15,2013-01-01 08:35:00,
2013-01-01 03:38:00,43.8,39.0,30.04,SSW,192,2.0,2.0,83,0.00,,,0.00,Wunderground v.1.15,2013-01-01 08:38:00,
2013-01-01 03:39:00,43.8,39.0,30.04,South,191,1.0,2.0,83,0.00,,,0.00,Wunderground v.1.15,2013-01-01 08:39:00,
2013-01-01 03:40:00,43.8,39.0,30.04,SSW,192,2.0,2.0,83,0.00,,,0.00,Wunderground v.1.15,2013-01-01 08:40:00,
2013-01-01 03:43:00,44.1,39.3,30.04,SSW,192,2.0,3.0,83,0.00,,,0.00,Wunderground v.1.15,2013-01-01 08:43:00,
2013-01-01 03:44:00,44.1,39.6,30.04,South,191,2.0,3.0,84,0.00,,,0.00,Wunderground v.1.15,2013-01-01 08:44:00,
2013-01-01 03:45:00,44.2,39.7,30.04,SSW,192,4.0,4.0,84,0.00,,,0.00,Wunderground v.1.15,2013-01-01 08:45:00,
2013-01-01 03:48:00,44.5,39.7,30.04,SSW,207,0.0,5.0,83,0.00,,,0.00,Wunderground v.1.15,2013-01-01 08:48:00,
2013-01-01 03:49:00,44.5,39.7,30.04,SSW,207,1.0,5.0,83,0.00,,,0.00,Wunderground v.1.15,2013-01-01 08:49:00,
2013-01-01 03:50:00,44.6,39.8,30.04,SSW,207,1.0,2.0,83,0.00,,,0.00,Wunderground v.1.15,2013-01-01 08:50:00,
2013-01-01 03:54:00,44.6,40.1,30.03,SSW,207,1.0,2.0,84,0.00,,,0.01,Wunderground v.1.15,2013-01-01 08:54:00,
2013-01-01 03:55:00,44.6,40.1,30.04,SSW,207,1.0,2.0,84,0.00,,,0.01,Wunderground v.1.15,2013-01-01 08:55:00,
2013-01-01 03:56:00,44.6,40.1,30.03,SSW,207,1.0,2.0,84,0.00,,,0.01,Wunderground v.1.15,2013-01-01 08:56:00,
2013-01-01 03:59:00,44.6,40.1,30.04,SSW,207,1.0,2.0,84,0.00,,,0.01,Wunderground v.1.15,2013-01-01 08:59:00,
2013-01-01 04:00:00,44.6,40.1,30.04,SSW,207,2.0,2.0,84,0.00,,,0.01,Wunderground v.1.15,2013-01-01 09:00:00,
2013-01-01 04:01:00,44.6,40.4,30.05,SSW,207,1.0,2.0,85,0.00,,,0.01,Wunderground v.1.15,2013-01-01 09:01:00,
2013-01-01 04:04:00,44.5,40.3,30.05,SSW,207,0.0,2.0,85,0.00,,,0.01,Wunderground v.1.15,2013-01-01 09:04:00,
2013-01-01 04:05:00,44.5,40.3,30.04,SSW,207,1.0,2.0,85,0.00,,,0.01,Wunderground v.1.15,2013-01-01 09:05:00,
2013-01-01 04:06:00,44.5,40.6,30.04,SSW,207,0.0,2.0,86,0.00,,,0.01,Wunderground v.1.15,2013-01-01 09:06:00,
2013-01-01 04:10:00,44.4,40.5,30.04,SSW,207,0.0,2.0,86,0.00,,,0.01,Wunderground v.1.15,2013-01-01 09:10:00,
2013-01-01 04:12:00,44.3,40.7,30.04,SSW,207,0.0,1.0,87,0.00,,,0.01,Wunderground v.1.15,2013-01-01 09:12:00,
2013-01-01 04:15:00,44.3,40.7,30.04,SSW,207,0.0,1.0,87,0.00,,,0.01,Wunderground v.1.15,2013-01-01 09:15:00,
2013-01-01 04:16:00,44.3,40.7,30.04,SSW,207,2.0,2.0,87,0.00,,,0.02,Wunderground v.1.15,2013-01-01 09:16:00,
2013-01-01 04:17:00,44.3,41.0,30.04,SSW,207,0.0,2.0,88,0.00,,,0.02,Wunderground v.1.15,2013-01-01 09:17:00,
2013-01-01 04:20:00,44.2,41.2,30.04,SSW,207,0.0,0.0,89,0.00,,,0.02,Wunderground v.1.15,2013-01-01 09:20:00,
2013-01-01 04:21:00,44.2,41.2,30.04,SSW,207,0.0,0.0,89,0.00,,,0.02,Wunderground v.1.15,2013-01-01 09:21:00,
2013-01-01 04:22:00,44.2,41.2,30.05,SSW,207,0.0,0.0,89,0.00,,,0.02,Wunderground v.1.15,2013-01-01 09:22:00,
2013-01-01 04:25:00,44.1,41.1,30.05,SSW,207,0.0,1.0,89,0.00,,,0.02,Wunderground v.1.15,2013-01-01 09:25:00,
2013-01-01 04:26:00,44.1,41.4,30.05,SSW,207,0.0,1.0,90,0.00,,,0.02,Wunderground v.1.15,2013-01-01 09:26:00,
2013-01-01 04:27:00,44.1,41.4,30.05,SSW,207,0.0,1.0,90,0.00,,,0.02,Wunderground v.1.15,2013-01-01 09:27:00,
2013-01-01 04:30:00,44.1,41.4,30.05,SSW,207,0.0,0.0,90,0.00,,,0.02,Wunderground v.1.15,2013-01-01 09:30:00,
2013-01-01 04:31:00,44.0,41.3,30.05,SSW,207,0.0,0.0,90,0.00,,,0.02,Wunderground v.1.15,2013-01-01 09:31:00,
2013-01-01 04:32:00,44.0,41.3,30.06,SSW,207,0.0,0.0,90,0.00,,,0.02,Wunderground v.1.15,2013-01-01 09:32:00,
2013-01-01 04:36:00,44.0,41.5,30.07,SSW,207,0.0,1.0,91,0.00,,,0.02,Wunderground v.1.15,2013-01-01 09:36:00,
2013-01-01 04:37:00,44.0,41.5,30.07,SSW,207,0.0,1.0,91,0.00,,,0.03,Wunderground v.1.15,2013-01-01 09:37:00,
2013-01-01 04:41:00,43.9,41.4,30.07,SSW,207,1.0,1.0,91,0.00,,,0.03,Wunderground v.1.15,2013-01-01 09:41:00,
2013-01-01 04:42:00,43.9,41.4,30.07,SSW,207,2.0,2.0,91,0.00,,,0.03,Wunderground v.1.15,2013-01-01 09:42:00,
2013-01-01 04:46:00,43.8,41.3,30.06,SSW,207,1.0,2.0,91,0.17,,,0.04,Wunderground v.1.15,2013-01-01 09:46:00,
2013-01-01 04:47:00,43.7,41.2,30.06,SSW,207,1.0,2.0,91,0.17,,,0.05,Wunderground v.1.15,2013-01-01 09:47:00,
2013-01-01 04:51:00,43.6,41.4,30.07,SSW,207,0.0,1.0,92,0.16,,,0.06,Wunderground v.1.15,2013-01-01 09:51:00,
2013-01-01 04:52:00,43.6,41.4,30.06,SSW,206,1.0,1.0,92,0.16,,,0.06,Wunderground v.1.15,2013-01-01 09:52:00,
2013-01-01 04:56:00,43.5,41.3,30.06,SSW,206,0.0,1.0,92,0.09,,,0.06,Wunderground v.1.15,2013-01-01 09:56:00,
2013-01-01 04:57:00,43.5,41.3,30.07,SSW,207,0.0,1.0,92,0.08,,,0.06,Wunderground v.1.15,2013-01-01 09:57:00,
2013-01-01 04:58:00,43.5,41.6,30.07,SSW,206,0.0,1.0,93,0.07,,,0.06,Wunderground v.1.15,2013-01-01 09:58:00,
2013-01-01 05:01:00,43.5,41.6,30.07,SSW,206,0.0,0.0,93,0.05,,,0.07,Wunderground v.1.15,2013-01-01 10:01:00,
2013-01-01 05:02:00,43.5,41.3,30.07,SSW,206,0.0,0.0,92,0.05,,,0.07,Wunderground v.1.15,2013-01-01 10:02:00,
2013-01-01 05:03:00,43.5,41.6,30.07,SSW,207,0.0,1.0,93,0.05,,,0.07,Wunderground v.1.15,2013-01-01 10:03:00,
2013-01-01 05:06:00,43.4,41.5,30.07,SSW,207,0.0,1.0,93,0.05,,,0.07,Wunderground v.1.15,2013-01-01 10:06:00,
2013-01-01 05:07:00,43.4,41.5,30.07,SSW,206,0.0,1.0,93,0.05,,,0.07,Wunderground v.1.15,2013-01-01 10:07:00,
2013-01-01 05:08:00,43.4,41.5,30.07,SSW,206,0.0,1.0,93,0.05,,,0.07,Wunderground v.1.15,2013-01-01 10:08:00,
2013-01-01 05:09:00,43.4,41.5,30.07,SSW,206,0.0,1.0,93,0.05,,,0.07,Wunderground v.1.15,2013-01-01 10:09:00,
2013-01-01 05:11:00,43.3,41.4,30.07,SSW,207,0.0,1.0,93,0.07,,,0.08,Wunderground v.1.15,2013-01-01 10:11:00,
2013-01-01 05:12:00,43.3,41.4,30.07,SSW,207,0.0,1.0,93,0.07,,,0.08,Wunderground v.1.15,2013-01-01 10:12:00,
2013-01-01 05:13:00,43.3,41.4,30.07,SSW,206,1.0,2.0,93,0.07,,,0.08,Wunderground v.1.15,2013-01-01 10:13:00,
2013-01-01 05:14:00,43.3,41.4,30.07,SSW,207,0.0,2.0,93,0.14,,,0.09,Wunderground v.1.15,2013-01-01 10:14:00,
2013-01-01 05:17:00,43.1,40.9,30.07,SSW,206,1.0,3.0,92,0.22,,,0.10,Wunderground v.1.15,2013-01-01 10:17:00,
2013-01-01 05:18:00,43.1,40.9,30.08,SSW,207,0.0,3.0,92,0.22,,,0.10,Wunderground v.1.15,2013-01-01 10:18:00,
2013-01-01 05:19:00,42.9,40.7,30.08,SSW,207,0.0,3.0,92,0.19,,,0.10,Wunderground v.1.15,2013-01-01 10:19:00,
2013-01-01 05:22:00,42.8,40.6,30.08,SSW,206,0.0,2.0,92,0.10,,,0.10,Wunderground v.1.15,2013-01-01 10:22:00,
2013-01-01 05:23:00,42.8,40.6,30.08,SSW,207,1.0,2.0,92,0.10,,,0.11,Wunderground v.1.15,2013-01-01 10:23:00,
2013-01-01 05:25:00,42.7,40.8,30.08,SSW,206,0.0,2.0,93,0.10,,,0.11,Wunderground v.1.15,2013-01-01 10:25:00,
2013-01-01 05:27:00,42.6,40.4,30.07,SSW,207,1.0,3.0,92,0.17,,,0.12,Wunderground v.1.15,2013-01-01 10:27:00,
2013-01-01 05:28:00,42.5,40.3,30.07,SSW,207,2.0,3.0,92,0.17,,,0.12,Wunderground v.1.15,2013-01-01 10:28:00,
2013-01-01 05:30:00,42.4,40.5,30.07,SSW,204,1.0,1.0,93,0.12,,,0.13,Wunderground v.1.15,2013-01-01 10:30:00,
2013-01-01 05:33:00,42.3,40.4,30.07,SSW,204,1.0,2.0,93,0.12,,,0.13,Wunderground v.1.15,2013-01-01 10:33:00,
2013-01-01 05:35:00,42.2,40.3,30.07,SSW,204,2.0,3.0,93,0.19,,,0.14,Wunderground v.1.15,2013-01-01 10:35:00,
2013-01-01 05:38:00,42.1,40.2,30.07,SSW,204,1.0,3.0,93,0.31,,,0.16,Wunderground v.1.15,2013-01-01 10:38:00,
2013-01-01 05:40:00,42.1,40.2,30.07,SSW,203,0.0,1.0,93,0.26,,,0.16,Wunderground v.1.15,2013-01-01 10:40:00,
2013-01-01 05:43:00,42.0,40.1,30.08,SSW,204,0.0,2.0,93,0.29,,,0.17,Wunderground v.1.15,2013-01-01 10:43:00,
2013-01-01 05:45:00,42.0,40.1,30.08,SSW,204,0.0,2.0,93,0.29,,,0.18,Wunderground v.1.15,2013-01-01 10:45:00,
2013-01-01 05:46:00,41.9,40.0,30.08,SSW,203,0.0,2.0,93,0.19,,,0.18,Wunderground v.1.15,2013-01-01 10:46:00,
2013-01-01 05:49:00,41.9,40.0,30.08,SSW,204,0.0,2.0,93,0.34,,,0.19,Wunderground v.1.15,2013-01-01 10:49:00,
2013-01-01 05:50:00,41.9,40.0,30.08,SSW,203,0.0,0.0,93,0.34,,,0.20,Wunderground v.1.15,2013-01-01 10:50:00,
2013-01-01 05:51:00,41.9,40.0,30.08,SSW,203,0.0,0.0,93,0.21,,,0.20,Wunderground v.1.15,2013-01-01 10:51:00,
2013-01-01 05:54:00,41.9,40.3,30.08,SSW,203,0.0,0.0,94,0.33,,,0.21,Wunderground v.1.15,2013-01-01 10:54:00,
2013-01-01 05:55:00,41.9,40.3,30.07,SSW,204,0.0,0.0,94,0.33,,,0.22,Wunderground v.1.15,2013-01-01 10:55:00,
2013-01-01 05:57:00,41.9,40.3,30.07,SSW,203,0.0,1.0,94,0.20,,,0.22,Wunderground v.1.15,2013-01-01 10:57:00,
2013-01-01 05:59:00,41.9,40.3,30.07,SSW,203,0.0,2.0,94,0.15,,,0.23,Wunderground v.1.15,2013-01-01 10:59:00,
2013-01-01 06:00:00,41.8,40.2,30.07,SSW,204,1.0,2.0,94,0.15,,,0.23,Wunderground v.1.15,2013-01-01 11:00:00,
2013-01-01 06:01:00,41.9,40.3,30.07,SSW,204,0.0,0.0,94,0.26,,,0.24,Wunderground v.1.15,2013-01-01 11:01:00,
2013-01-01 06:02:00,41.9,40.3,30.07,SSW,203,0.0,1.0,94,0.26,,,0.24,Wunderground v.1.15,2013-01-01 11:02:00,
2013-01-01 06:04:00,41.8,40.2,30.07,SSW,203,0.0,2.0,94,0.17,,,0.25,Wunderground v.1.15,2013-01-01 11:04:00,
2013-01-01 06:05:00,41.9,40.3,30.07,SSW,204,1.0,2.0,94,0.17,,,0.25,Wunderground v.1.15,2013-01-01 11:05:00,
2013-01-01 06:07:00,41.8,40.2,30.07,SSW,204,1.0,3.0,94,0.17,,,0.25,Wunderground v.1.15,2013-01-01 11:07:00,
2013-01-01 06:10:00,41.8,40.2,30.07,SSW,203,0.0,1.0,94,0.18,,,0.26,Wunderground v.1.15,2013-01-01 11:10:00,
2013-01-01 06:11:00,41.7,40.1,30.07,SSW,204,0.0,1.0,94,0.17,,,0.26,Wunderground v.1.15,2013-01-01 11:11:00,
2013-01-01 06:12:00,41.7,40.1,30.07,SSW,204,0.0,1.0,94,0.12,,,0.26,Wunderground v.1.15,2013-01-01 11:12:00,
2013-01-01 06:15:00,41.6,40.0,30.07,SSW,204,0.0,2.0,94,0.10,,,0.27,Wunderground v.1.15,2013-01-01 11:15:00,
2013-01-01 06:16:00,41.6,40.0,30.07,SSW,204,1.0,2.0,94,0.10,,,0.27,Wunderground v.1.15,2013-01-01 11:16:00,
2013-01-01 06:17:00,41.6,40.0,30.07,SSW,204,2.0,2.0,94,0.16,,,0.28,Wunderground v.1.15,2013-01-01 11:17:00,
2013-01-01 06:20:00,41.6,40.0,30.07,SSW,204,3.0,3.0,94,0.16,,,0.28,Wunderground v.1.15,2013-01-01 11:20:00,
2013-01-01 06:21:00,41.5,39.9,30.07,SSW,204,0.0,3.0,94,0.13,,,0.28,Wunderground v.1.15,2013-01-01 11:21:00,
2013-01-01 06:22:00,41.5,39.9,30.07,SSW,204,0.0,3.0,94,0.11,,,0.28,Wunderground v.1.15,2013-01-01 11:22:00,
2013-01-01 06:25:00,41.4,39.8,30.08,SSW,204,0.0,3.0,94,0.09,,,0.29,Wunderground v.1.15,2013-01-01 11:25:00,
2013-01-01 06:27:00,41.4,39.8,30.08,SSW,204,2.0,3.0,94,0.09,,,0.29,Wunderground v.1.15,2013-01-01 11:27:00,
2013-01-01 06:31:00,41.2,39.6,30.08,SSW,204,0.0,1.0,94,0.15,,,0.30,Wunderground v.1.15,2013-01-01 11:31:00,
2013-01-01 06:32:00,41.1,39.5,30.08,SSW,203,0.0,1.0,94,0.12,,,0.30,Wunderground v.1.15,2013-01-01 11:32:00,
2013-01-01 06:33:00,41.1,39.5,30.08,SSW,203,1.0,1.0,94,0.12,,,0.31,Wunderground v.1.15,2013-01-01 11:33:00,
2013-01-01 06:36:00,41.1,39.5,30.08,SSW,204,2.0,2.0,94,0.20,,,0.32,Wunderground v.1.15,2013-01-01 11:36:00,
2013-01-01 06:37:00,41.1,39.5,30.08,SSW,204,0.0,2.0,94,0.20,,,0.32,Wunderground v.1.15,2013-01-01 11:37:00,
2013-01-01 06:38:00,41.1,39.5,30.08,SSW,204,1.0,3.0,94,0.21,,,0.33,Wunderground v.1.15,2013-01-01 11:38:00,
2013-01-01 06:40:00,41.1,39.5,30.08,SSW,203,1.0,3.0,94,0.21,,,0.33,Wunderground v.1.15,2013-01-01 11:40:00,
2013-01-01 06:41:00,41.0,39.4,30.08,SSW,203,2.0,4.0,94,0.26,,,0.34,Wunderground v.1.15,2013-01-01 11:41:00,
2013-01-01 06:43:00,41.0,39.4,30.07,SSW,203,2.0,4.0,94,0.23,,,0.35,Wunderground v.1.15,2013-01-01 11:43:00,
2013-01-01 06:45:00,40.9,39.3,30.07,SSW,203,2.0,4.0,94,0.23,,,0.35,Wunderground v.1.15,2013-01-01 11:45:00,
2013-01-01 06:46:00,40.8,39.2,30.08,SSW,203,0.0,4.0,94,0.23,,,0.36,Wunderground v.1.15,2013-01-01 11:46:00,
2013-01-01 06:48:00,40.7,39.1,30.08,SSW,203,1.0,4.0,94,0.19,,,0.36,Wunderground v.1.15,2013-01-01 11:48:00,
2013-01-01 06:50:00,40.6,39.0,30.07,SSW,204,3.0,3.0,94,0.19,,,0.37,Wunderground v.1.15,2013-01-01 11:50:00,
2013-01-01 06:51:00,40.6,39.0,30.07,SSW,204,2.0,3.0,94,0.19,,,0.37,Wunderground v.1.15,2013-01-01 11:51:00,
2013-01-01 06:52:00,40.6,39.0,30.07,SSW,203,2.0,3.0,94,0.22,,,0.38,Wunderground v.1.15,2013-01-01 11:52:00,
2013-01-01 06:54:00,40.5,38.9,30.07,SSW,203,2.0,3.0,94,0.22,,,0.38,Wunderground v.1.15,2013-01-01 11:54:00,
2013-01-01 06:55:00,40.4,38.8,30.07,SSW,204,1.0,3.0,94,0.18,,,0.39,Wunderground v.1.15,2013-01-01 11:55:00,
2013-01-01 06:57:00,40.4,38.8,30.07,SSW,204,0.0,3.0,94,0.18,,,0.39,Wunderground v.1.15,2013-01-01 11:57:00,
2013-01-01 06:59:00,40.3,38.7,30.07,SSW,204,1.0,3.0,94,0.25,,,0.40,Wunderground v.1.15,2013-01-01 11:59:00,
2013-01-01 07:01:00,40.3,38.7,30.07,SSW,204,0.0,1.0,94,0.19,,,0.41,Wunderground v.1.15,2013-01-01 12:01:00,
2013-01-01 07:02:00,40.3,38.7,30.07,SSW,204,1.0,1.0,94,0.19,,,0.41,Wunderground v.1.15,2013-01-01 12:02:00,
2013-01-01 07:04:00,40.2,38.9,30.08,SSW,203,0.0,2.0,95,0.18,,,0.42,Wunderground v.1.15,2013-01-01 12:04:00,
2013-01-01 07:06:00,40.2,38.9,30.07,SSW,204,0.0,2.0,95,0.18,,,0.42,Wunderground v.1.15,2013-01-01 12:06:00,
2013-01-01 07:07:00,40.2,38.9,30.08,SSW,203,0.0,2.0,95,0.18,,,0.42,Wunderground v.1.15,2013-01-01 12:07:00,
2013-01-01 07:09:00,40.3,39.0,30.08,SSW,204,0.0,2.0,95,0.15,,,0.43,Wunderground v.1.15,2013-01-01 12:09:00,
2013-01-01 07:11:00,40.3,39.0,30.08,SSW,203,0.0,0.0,95,0.21,,,0.44,Wunderground v.1.15,2013-01-01 12:11:00,
2013-01-01 07:12:00,40.3,39.0,30.08,SSW,203,0.0,0.0,95,0.21,,,0.44,Wunderground v.1.15,2013-01-01 12:12:00,
2013-01-01 07:14:00,40.3,39.0,30.08,SSW,203,0.0,1.0,95,0.17,,,0.45,Wunderground v.1.15,2013-01-01 12:14:00,
2013-01-01 07:16:00,40.4,39.1,30.08,SSW,204,0.0,1.0,95,0.17,,,0.45,Wunderground v.1.15,2013-01-01 12:16:00,
2013-01-01 07:18:00,40.4,39.1,30.08,SSW,204,1.0,2.0,95,0.15,,,0.45,Wunderground v.1.15,2013-01-01 12:18:00,
2013-01-01 07:19:00,40.4,39.1,30.08,SSW,203,0.0,2.0,95,0.12,,,0.46,Wunderground v.1.15,2013-01-01 12:19:00,
2013-01-01 07:22:00,40.4,39.1,30.07,SSW,204,0.0,2.0,95,0.12,,,0.46,Wunderground v.1.15,2013-01-01 12:22:00,
2013-01-01 07:23:00,40.5,39.2,30.07,SSW,203,0.0,2.0,95,0.12,,,0.46,Wunderground v.1.15,2013-01-01 12:23:00,
2013-01-01 07:24:00,40.5,39.2,30.07,SSW,204,0.0,2.0,95,0.11,,,0.46,Wunderground v.1.15,2013-01-01 12:24:00,
2013-01-01 07:27:00,40.5,39.2,30.07,SSW,204,0.0,3.0,95,0.07,,,0.46,Wunderground v.1.15,2013-01-01 12:27:00,
2013-01-01 07:28:00,40.4,39.1,30.07,SSW,203,0.0,3.0,95,0.07,,,0.47,Wunderground v.1.15,2013-01-01 12:28:00,
2013-01-01 07:30:00,40.4,39.1,30.07,SSW,204,2.0,3.0,95,0.07,,,0.47,Wunderground v.1.15,2013-01-01 12:30:00,
2013-01-01 07:32:00,40.3,39.0,30.07,SSW,204,2.0,3.0,95,0.07,,,0.47,Wunderground v.1.15,2013-01-01 12:32:00,
2013-01-01 07:33:00,40.2,38.9,30.07,SSW,203,1.0,4.0,95,0.07,,,0.47,Wunderground v.1.15,2013-01-01 12:33:00,
2013-01-01 07:34:00,40.2,38.9,30.07,SSW,203,4.0,4.0,95,0.07,,,0.47,Wunderground v.1.15,2013-01-01 12:34:00,
2013-01-01 07:35:00,40.2,38.9,30.07,SSW,203,2.0,4.0,95,0.08,,,0.48,Wunderground v.1.15,2013-01-01 12:35:00,
2013-01-01 07:37:00,40.1,38.8,30.07,SSW,204,0.0,4.0,95,0.08,,,0.48,Wunderground v.1.15,2013-01-01 12:37:00,
2013-01-01 07:39:00,40.1,38.8,30.07,SSW,203,1.0,4.0,95,0.08,,,0.48,Wunderground v.1.15,2013-01-01 12:39:00,
2013-01-01 07:40:00,40.1,38.8,30.07,SSW,203,1.0,2.0,95,0.08,,,0.48,Wunderground v.1.15,2013-01-01 12:40:00,
2013-01-01 07:42:00,40.0,38.7,30.07,SSW,203,0.0,2.0,95,0.08,,,0.48,Wunderground v.1.15,2013-01-01 12:42:00,
2013-01-01 07:44:00,40.1,38.8,30.07,SSW,204,0.0,2.0,95,0.07,,,0.48,Wunderground v.1.15,2013-01-01 12:44:00,
2013-01-01 07:45:00,40.1,38.8,30.07,SSW,204,0.0,2.0,95,0.06,,,0.48,Wunderground v.1.15,2013-01-01 12:45:00,
2013-01-01 07:48:00,40.1,38.8,30.07,SSW,204,0.0,2.0,95,0.05,,,0.49,Wunderground v.1.15,2013-01-01 12:48:00,
2013-01-01 07:49:00,40.1,38.8,30.07,SSW,203,0.0,2.0,95,0.05,,,0.49,Wunderground v.1.15,2013-01-01 12:49:00,
2013-01-01 07:50:00,40.2,38.9,30.07,SSW,204,0.0,1.0,95,0.05,,,0.49,Wunderground v.1.15,2013-01-01 12:50:00,
2013-01-01 07:53:00,40.2,38.9,30.07,SSW,204,1.0,3.0,95,0.05,,,0.49,Wunderground v.1.15,2013-01-01 12:53:00,
2013-01-01 07:55:00,40.2,38.9,30.07,SSW,205,1.0,3.0,95,0.05,,,0.49,Wunderground v.1.15,2013-01-01 12:55:00,
2013-01-01 07:58:00,40.2,38.9,30.07,SSW,205,2.0,3.0,95,0.06,,,0.50,Wunderground v.1.15,2013-01-01 12:58:00,
2013-01-01 08:00:00,40.2,38.9,30.07,SSW,205,1.0,1.0,95,0.06,,,0.50,Wunderground v.1.15,2013-01-01 13:00:00,
2013-01-01 08:01:00,40.2,38.9,30.07,SSW,205,1.0,2.0,95,0.06,,,0.50,Wunderground v.1.15,2013-01-01 13:01:00,
2013-01-01 08:02:00,40.2,38.9,30.07,SSW,205,0.0,2.0,95,0.06,,,0.50,Wunderground v.1.15,2013-01-01 13:02:00,
2013-01-01 08:03:00,40.2,38.9,30.07,SSW,205,0.0,2.0,95,0.06,,,0.50,Wunderground v.1.15,2013-01-01 13:03:00,
2013-01-01 08:05:00,40.2,38.9,30.07,SSW,205,0.0,2.0,95,0.06,,,0.50,Wunderground v.1.15,2013-01-01 13:05:00,
2013-01-01 08:07:00,40.3,39.0,30.07,SSW,205,0.0,2.0,95,0.06,,,0.50,Wunderground v.1.15,2013-01-01 13:07:00,
2013-01-01 08:08:00,40.3,39.0,30.07,SSW,205,0.0,2.0,95,0.05,,,0.50,Wunderground v.1.15,2013-01-01 13:08:00,
2013-01-01 08:11:00,40.4,39.4,30.07,SSW,205,0.0,1.0,96,0.04,,,0.50,Wunderground v.1.15,2013-01-01 13:11:00,
2013-01-01 08:12:00,40.4,39.4,30.07,SSW,205,0.0,1.0,96,0.04,,,0.50,Wunderground v.1.15,2013-01-01 13:12:00,
2013-01-01 08:13:00,40.4,39.4,30.07,SSW,203,3.0,3.0,96,0.04,,,0.50,Wunderground v.1.15,2013-01-01 13:13:00,
2013-01-01 08:16:00,40.5,39.4,30.07,SSW,203,1.0,3.0,96,0.00,,,0.51,Wunderground v.1.15,2013-01-01 13:16:00,
2013-01-01 08:17:00,40.5,39.4,30.07,SSW,203,0.0,3.0,96,0.00,,,0.51,Wunderground v.1.15,2013-01-01 13:17:00,
2013-01-01 08:18:00,40.5,39.4,30.07,SSW,205,0.0,3.0,96,0.00,,,0.51,Wunderground v.1.15,2013-01-01 13:18:00,
2013-01-01 08:19:00,40.5,39.4,30.07,SSW,204,0.0,3.0,96,0.00,,,0.51,Wunderground v.1.15,2013-01-01 13:19:00,
2013-01-01 08:21:00,40.5,39.4,30.07,SSW,205,0.0,1.0,96,0.00,,,0.51,Wunderground v.1.15,2013-01-01 13:21:00,
2013-01-01 08:22:00,40.5,39.4,30.07,SSW,204,2.0,2.0,96,0.00,,,0.51,Wunderground v.1.15,2013-01-01 13:22:00,
2013-01-01 08:24:00,40.5,39.4,30.07,SSW,203,0.0,2.0,96,0.00,,,0.51,Wunderground v.1.15,2013-01-01 13:24:00,
2013-01-01 08:25:00,40.5,39.4,30.07,SSW,204,0.0,2.0,96,0.00,,,0.51,Wunderground v.1.15,2013-01-01 13:25:00,
2013-01-01 08:26:00,40.6,39.5,30.07,SSW,204,0.0,2.0,96,0.00,,,0.51,Wunderground v.1.15,2013-01-01 13:26:00,
2013-01-01 08:28:00,40.6,39.5,30.07,SSW,203,1.0,2.0,96,0.05,,,0.52,Wunderground v.1.15,2013-01-01 13:28:00,
2013-01-01 08:29:00,40.6,39.5,30.06,SSW,204,2.0,2.0,96,0.05,,,0.52,Wunderground v.1.15,2013-01-01 13:29:00,
2013-01-01 08:30:00,40.6,39.5,30.06,SSW,204,0.0,2.0,96,0.05,,,0.52,Wunderground v.1.15,2013-01-01 13:30:00,
2013-01-01 08:31:00,40.6,39.5,30.06,SSW,204,1.0,2.0,96,0.05,,,0.52,Wunderground v.1.15,2013-01-01 13:31:00,
2013-01-01 08:33:00,40.6,39.5,30.07,SSW,205,1.0,2.0,96,0.05,,,0.52,Wunderground v.1.15,2013-01-01 13:33:00,
2013-01-01 08:35:00,40.6,39.5,30.07,SSW,204,1.0,2.0,96,0.05,,,0.52,Wunderground v.1.15,2013-01-01 13:35:00,
2013-01-01 08:37:00,40.6,39.5,30.07,SSW,204,0.0,3.0,96,0.06,,,0.53,Wunderground v.1.15,2013-01-01 13:37:00,
2013-01-01 08:38:00,40.6,39.5,30.06,SSW,204,1.0,3.0,96,0.06,,,0.53,Wunderground v.1.15,2013-01-01 13:38:00,
2013-01-01 08:40:00,40.7,39.6,30.06,SSW,204,0.0,1.0,96,0.06,,,0.53,Wunderground v.1.15,2013-01-01 13:40:00,
2013-01-01 08:42:00,40.7,39.6,30.06,SSW,204,0.0,1.0,96,0.06,,,0.53,Wunderground v.1.15,2013-01-01 13:42:00,
2013-01-01 08:43:00,40.7,39.6,30.06,SSW,204,1.0,1.0,96,0.06,,,0.53,Wunderground v.1.15,2013-01-01 13:43:00,
2013-01-01 08:46:00,40.7,39.6,30.06,SSW,204,1.0,3.0,96,0.06,,,0.53,Wunderground v.1.15,2013-01-01 13:46:00,
2013-01-01 08:47:00,40.8,39.7,30.06,SSW,204,1.0,3.0,96,0.06,,,0.53,Wunderground v.1.15,2013-01-01 13:47:00,
2013-01-01 08:48:00,40.8,39.7,30.06,SSW,204,2.0,3.0,96,0.05,,,0.53,Wunderground v.1.15,2013-01-01 13:48:00,
2013-01-01 08:51:00,40.8,39.7,30.06,SSW,204,4.0,4.0,96,0.04,,,0.54,Wunderground v.1.15,2013-01-01 13:51:00,
2013-01-01 08:52:00,40.9,39.8,30.06,South,186,2.0,4.0,96,0.04,,,0.54,Wunderground v.1.15,2013-01-01 13:52:00,
2013-01-01 08:53:00,40.8,39.7,30.05,South,186,2.0,5.0,96,0.04,,,0.54,Wunderground v.1.15,2013-01-01 13:53:00,
2013-01-01 08:56:00,40.8,39.7,30.05,South,186,1.0,5.0,96,0.04,,,0.54,Wunderground v.1.15,2013-01-01 13:56:00,
2013-01-01 08:57:00,40.8,39.7,30.05,South,186,0.0,5.0,96,0.04,,,0.54,Wunderground v.1.15,2013-01-01 13:57:00,
2013-01-01 08:58:00,40.8,39.7,30.05,South,186,1.0,5.0,96,0.04,,,0.54,Wunderground v.1.15,2013-01-01 13:58:00,
2013-01-01 09:01:00,40.9,39.8,30.05,South,186,1.0,3.0,96,0.04,,,0.54,Wunderground v.1.15,2013-01-01 14:01:00,
2013-01-01 09:02:00,40.9,39.8,30.05,South,186,3.0,3.0,96,0.04,,,0.54,Wunderground v.1.15,2013-01-01 14:02:00,
2013-01-01 09:04:00,40.9,39.8,30.05,South,186,1.0,3.0,96,0.04,,,0.54,Wunderground v.1.15,2013-01-01 14:04:00,
2013-01-01 09:06:00,40.9,39.8,30.05,South,186,0.0,3.0,96,0.04,,,0.54,Wunderground v.1.15,2013-01-01 14:06:00,
2013-01-01 09:07:00,41.0,39.9,30.05,South,186,2.0,3.0,96,0.04,,,0.54,Wunderground v.1.15,2013-01-01 14:07:00,
2013-01-01 09:08:00,41.0,39.9,30.05,South,186,1.0,3.0,96,0.00,,,0.54,Wunderground v.1.15,2013-01-01 14:08:00,
2013-01-01 09:09:00,41.0,39.9,30.06,South,186,0.0,3.0,96,0.00,,,0.54,Wunderground v.1.15,2013-01-01 14:09:00,
2013-01-01 09:11:00,41.0,39.9,30.06,South,186,2.0,2.0,96,0.00,,,0.54,Wunderground v.1.15,2013-01-01 14:11:00,
2013-01-01 09:12:00,41.1,40.0,30.06,South,186,2.0,2.0,96,0.00,,,0.54,Wunderground v.1.15,2013-01-01 14:12:00,
2013-01-01 09:13:00,41.1,40.0,30.06,South,186,0.0,2.0,96,0.00,,,0.54,Wunderground v.1.15,2013-01-01 14:13:00,
2013-01-01 09:15:00,41.1,40.0,30.07,South,186,0.0,2.0,96,0.00,,,0.54,Wunderground v.1.15,2013-01-01 14:15:00,
2013-01-01 09:16:00,41.1,40.0,30.07,South,186,0.0,2.0,96,0.00,,,0.54,Wunderground v.1.15,2013-01-01 14:16:00,
2013-01-01 09:17:00,41.2,40.1,30.06,N/A,-737280,0.0,-999.0,96,0.04,,,0.71,Wunderground v.1.15,2013-01-01 14:17:00,
2013-01-01 09:18:00,41.2,40.1,30.07,South,186,0.0,2.0,96,0.00,,,0.55,Wunderground v.1.15,2013-01-01 14:18:00,
2013-01-01 09:21:00,41.2,40.1,30.06,South,186,0.0,0.0,96,0.00,,,0.55,Wunderground v.1.15,2013-01-01 14:21:00,
2013-01-01 09:22:00,41.4,40.3,30.06,South,180,0.0,-999.0,96,0.05,,,0.71,Wunderground v.1.15,2013-01-01 14:22:00,
2013-01-01 09:23:00,41.3,40.2,30.06,South,186,0.0,1.0,96,0.00,,,0.55,Wunderground v.1.15,2013-01-01 14:23:00,
2013-01-01 09:26:00,41.4,40.3,30.06,South,186,0.0,1.0,96,0.07,,,0.56,Wunderground v.1.15,2013-01-01 14:26:00,
2013-01-01 09:27:00,41.4,40.3,30.06,South,186,0.0,1.0,96,0.07,,,0.56,Wunderground v.1.15,2013-01-01 14:27:00,
2013-01-01 09:28:00,41.4,40.3,30.06,South,186,0.0,1.0,96,0.07,,,0.56,Wunderground v.1.15,2013-01-01 14:28:00,
2013-01-01 09:29:00,41.4,40.3,30.06,South,186,0.0,1.0,96,0.07,,,0.56,Wunderground v.1.15,2013-01-01 14:29:00,
2013-01-01 09:31:00,41.5,40.4,30.06,South,186,0.0,0.0,96,0.07,,,0.56,Wunderground v.1.15,2013-01-01 14:31:00,
2013-01-01 09:32:00,41.6,40.5,30.06,South,186,2.0,2.0,96,0.07,,,0.56,Wunderground v.1.15,2013-01-01 14:32:00,
2013-01-01 09:33:00,41.6,40.5,30.06,South,186,0.0,2.0,96,0.07,,,0.56,Wunderground v.1.15,2013-01-01 14:33:00,
2013-01-01 09:34:00,41.6,40.5,30.06,South,186,0.0,2.0,96,0.07,,,0.57,Wunderground v.1.15,2013-01-01 14:34:00,
2013-01-01 09:36:00,41.6,40.5,30.06,South,186,0.0,2.0,96,0.07,,,0.57,Wunderground v.1.15,2013-01-01 14:36:00,
2013-01-01 09:37:00,41.7,40.6,30.06,South,186,0.0,2.0,96,0.07,,,0.57,Wunderground v.1.15,2013-01-01 14:37:00,
2013-01-01 09:38:00,41.7,40.6,30.06,South,186,0.0,2.0,96,0.07,,,0.57,Wunderground v.1.15,2013-01-01 14:38:00,
2013-01-01 09:39:00,41.7,40.6,30.06,South,186,0.0,2.0,96,0.07,,,0.57,Wunderground v.1.15,2013-01-01 14:39:00,
2013-01-01 09:41:00,41.8,40.7,30.06,South,186,0.0,0.0,96,0.08,,,0.58,Wunderground v.1.15,2013-01-01 14:41:00,
2013-01-01 09:42:00,41.8,40.7,30.05,South,186,1.0,1.0,96,0.08,,,0.58,Wunderground v.1.15,2013-01-01 14:42:00,
2013-01-01 09:44:00,41.9,40.8,30.05,South,186,0.0,1.0,96,0.08,,,0.58,Wunderground v.1.15,2013-01-01 14:44:00,
2013-01-01 09:47:00,41.9,40.8,30.05,South,186,0.0,1.0,96,0.08,,,0.58,Wunderground v.1.15,2013-01-01 14:47:00,
2013-01-01 09:48:00,42.0,40.9,30.05,South,186,1.0,1.0,96,0.08,,,0.58,Wunderground v.1.15,2013-01-01 14:48:00,
2013-01-01 09:49:00,42.0,40.9,30.05,South,186,1.0,1.0,96,0.08,,,0.58,Wunderground v.1.15,2013-01-01 14:49:00,
2013-01-01 09:52:00,42.0,40.9,30.05,South,186,0.0,1.0,96,0.06,,,0.58,Wunderground v.1.15,2013-01-01 14:52:00,
2013-01-01 09:54:00,42.0,40.9,30.05,South,186,0.0,1.0,96,0.05,,,0.59,Wunderground v.1.15,2013-01-01 14:54:00,
2013-01-01 09:57:00,42.1,41.0,30.05,South,186,0.0,2.0,96,0.05,,,0.59,Wunderground v.1.15,2013-01-01 14:57:00,
2013-01-01 09:59:00,42.1,41.0,30.05,South,186,0.0,2.0,96,0.05,,,0.59,Wunderground v.1.15,2013-01-01 14:59:00,
2013-01-01 10:02:00,42.1,41.0,30.05,South,186,0.0,1.0,96,0.07,,,0.60,Wunderground v.1.15,2013-01-01 15:02:00,
2013-01-01 10:04:00,42.1,41.0,30.05,South,186,0.0,1.0,96,0.07,,,0.60,Wunderground v.1.15,2013-01-01 15:04:00,
2013-01-01 10:07:00,42.1,41.0,30.04,South,186,2.0,2.0,96,0.07,,,0.60,Wunderground v.1.15,2013-01-01 15:07:00,
2013-01-01 10:09:00,42.1,41.0,30.03,South,186,0.0,2.0,96,0.08,,,0.61,Wunderground v.1.15,2013-01-01 15:09:00,
2013-01-01 10:12:00,42.2,41.1,30.03,South,186,0.0,2.0,96,0.08,,,0.61,Wunderground v.1.15,2013-01-01 15:12:00,
2013-01-01 10:14:00,42.2,41.1,30.04,South,186,0.0,2.0,96,0.08,,,0.61,Wunderground v.1.15,2013-01-01 15:14:00,
2013-01-01 10:17:00,42.2,41.1,30.03,South,186,3.0,4.0,96,0.07,,,0.61,Wunderground v.1.15,2013-01-01 15:17:00,
2013-01-01 10:19:00,42.3,41.2,30.03,South,186,1.0,4.0,96,0.07,,,0.62,Wunderground v.1.15,2013-01-01 15:19:00,
2013-01-01 10:20:00,42.4,41.3,30.03,South,186,0.0,1.0,96,0.07,,,0.62,Wunderground v.1.15,2013-01-01 15:20:00,
2013-01-01 10:22:00,42.5,41.4,30.02,South,180,1.0,-999.0,96,0.07,,,0.71,Wunderground v.1.15,2013-01-01 15:22:00,
2013-01-01 10:23:00,42.4,41.3,30.02,South,186,1.0,2.0,96,0.07,,,0.62,Wunderground v.1.15,2013-01-01 15:23:00,
2013-01-01 10:24:00,42.5,41.4,30.02,South,186,1.0,2.0,96,0.07,,,0.62,Wunderground v.1.15,2013-01-01 15:24:00,
2013-01-01 10:25:00,42.5,41.4,30.02,South,186,2.0,3.0,96,0.08,,,0.62,Wunderground v.1.15,2013-01-01 15:25:00,
2013-01-01 10:27:00,42.6,41.5,30.02,South,180,2.0,-999.0,96,0.07,,,0.71,Wunderground v.1.15,2013-01-01 15:27:00,
2013-01-01 10:28:00,42.5,41.4,30.02,South,186,0.0,3.0,96,0.08,,,0.63,Wunderground v.1.15,2013-01-01 15:28:00,
2013-01-01 10:29:00,42.6,41.5,30.02,South,186,2.0,3.0,96,0.08,,,0.63,Wunderground v.1.15,2013-01-01 15:29:00,
2013-01-01 10:31:00,42.6,41.5,30.02,South,186,2.0,2.0,96,0.08,,,0.63,Wunderground v.1.15,2013-01-01 15:31:00,
2013-01-01 10:32:00,42.9,42.1,30.02,South,180,2.0,-999.0,97,0.07,,,0.71,Wunderground v.1.15,2013-01-01 15:32:00,
2013-01-01 10:33:00,42.8,41.7,30.02,South,186,2.0,3.0,96,0.07,,,0.63,Wunderground v.1.15,2013-01-01 15:33:00,
2013-01-01 10:35:00,42.8,42.0,30.02,South,186,1.0,3.0,97,0.07,,,0.64,Wunderground v.1.15,2013-01-01 15:35:00,
2013-01-01 10:36:00,42.9,42.1,30.02,South,186,1.0,3.0,97,0.07,,,0.64,Wunderground v.1.15,2013-01-01 15:36:00,
2013-01-01 10:37:00,43.2,42.1,30.02,South,180,1.0,-999.0,96,0.06,,,0.71,Wunderground v.1.15,2013-01-01 15:37:00,
2013-01-01 10:39:00,43.0,42.2,30.02,South,186,1.0,3.0,97,0.07,,,0.64,Wunderground v.1.15,2013-01-01 15:39:00,
2013-01-01 10:40:00,43.1,42.0,30.02,South,186,2.0,2.0,96,0.07,,,0.64,Wunderground v.1.15,2013-01-01 15:40:00,
2013-01-01 10:41:00,43.2,42.1,30.02,South,186,0.0,2.0,96,0.07,,,0.64,Wunderground v.1.15,2013-01-01 15:41:00,
2013-01-01 10:42:00,43.3,42.2,30.02,South,186,1.0,2.0,96,0.07,,,0.64,Wunderground v.1.15,2013-01-01 15:42:00,
2013-01-01 10:44:00,43.6,42.8,30.02,South,186,0.0,2.0,97,0.06,,,0.64,Wunderground v.1.15,2013-01-01 15:44:00,
2013-01-01 10:45:00,43.7,42.9,30.02,South,186,0.0,2.0,97,0.05,,,0.64,Wunderground v.1.15,2013-01-01 15:45:00,
2013-01-01 10:46:00,43.8,43.0,30.02,South,186,0.0,2.0,97,0.05,,,0.64,Wunderground v.1.15,2013-01-01 15:46:00,
2013-01-01 10:47:00,43.9,43.1,30.02,South,186,0.0,2.0,97,0.04,,,0.64,Wunderground v.1.15,2013-01-01 15:47:00,
2013-01-01 10:49:00,44.0,43.2,30.02,South,186,0.0,2.0,97,0.04,,,0.64,Wunderground v.1.15,2013-01-01 15:49:00,
2013-01-01 10:50:00,44.1,43.3,30.02,South,186,0.0,1.0,97,0.04,,,0.64,Wunderground v.1.15,2013-01-01 15:50:00,
2013-01-01 10:51:00,44.2,43.4,30.02,South,186,0.0,1.0,97,0.00,,,0.64,Wunderground v.1.15,2013-01-01 15:51:00,
2013-01-01 10:52:00,45.0,44.2,30.01,SSW,203,2.0,-999.0,97,0.05,,,0.71,Wunderground v.1.15,2013-01-01 15:52:00,
2013-01-01 10:53:00,44.4,43.6,30.02,SSW,196,1.0,2.0,97,0.00,,,0.64,Wunderground v.1.15,2013-01-01 15:53:00,
2013-01-01 10:54:00,44.6,43.8,30.02,SSW,198,1.0,2.0,97,0.00,,,0.64,Wunderground v.1.15,2013-01-01 15:54:00,
2013-01-01 10:56:00,44.9,44.1,30.01,SSW,199,0.0,2.0,97,0.00,,,0.64,Wunderground v.1.15,2013-01-01 15:56:00,
2013-01-01 10:57:00,45.6,44.8,30.02,East,90,2.0,-999.0,97,0.05,,,0.71,Wunderground v.1.15,2013-01-01 15:57:00,
2013-01-01 10:58:00,45.2,44.4,30.01,SSW,199,0.0,3.0,97,0.00,,,0.64,Wunderground v.1.15,2013-01-01 15:58:00,
2013-01-01 11:00:00,45.5,44.7,30.02,East,95,2.0,3.0,97,0.00,,,0.64,Wunderground v.1.15,2013-01-01 16:00:00,
2013-01-01 11:01:00,45.6,44.8,30.02,East,95,3.0,3.0,97,0.00,,,0.64,Wunderground v.1.15,2013-01-01 16:01:00,
2013-01-01 11:02:00,45.6,44.8,30.02,East,95,2.0,3.0,97,0.00,,,0.64,Wunderground v.1.15,2013-01-01 16:02:00,
2013-01-01 11:03:00,45.6,44.8,30.02,East,95,2.0,3.0,97,0.00,,,0.64,Wunderground v.1.15,2013-01-01 16:03:00,
2013-01-01 11:06:00,45.6,44.8,30.02,East,95,2.0,3.0,97,0.00,,,0.64,Wunderground v.1.15,2013-01-01 16:06:00,
2013-01-01 11:07:00,45.7,44.9,30.02,East,95,0.0,3.0,97,0.00,,,0.64,Wunderground v.1.15,2013-01-01 16:07:00,
2013-01-01 11:08:00,45.7,44.9,30.02,East,95,1.0,3.0,97,0.00,,,0.65,Wunderground v.1.15,2013-01-01 16:08:00,
2013-01-01 11:11:00,45.9,45.1,30.02,East,95,1.0,2.0,97,0.00,,,0.65,Wunderground v.1.15,2013-01-01 16:11:00,
2013-01-01 11:12:00,47.1,46.3,30.00,ESE,113,2.0,-999.0,97,0.04,,,0.71,Wunderground v.1.15,2013-01-01 16:12:00,
2013-01-01 11:13:00,46.3,45.5,30.01,East,96,2.0,3.0,97,0.00,,,0.65,Wunderground v.1.15,2013-01-01 16:13:00,
2013-01-01 11:16:00,47.1,46.3,30.00,ESE,110,2.0,4.0,97,0.00,,,0.65,Wunderground v.1.15,2013-01-01 16:16:00,
2013-01-01 11:17:00,47.8,47.0,30.00,SW,225,2.0,-999.0,97,0.03,,,0.71,Wunderground v.1.15,2013-01-01 16:17:00,
2013-01-01 11:18:00,47.5,46.7,30.00,SW,214,2.0,5.0,97,0.00,,,0.65,Wunderground v.1.15,2013-01-01 16:18:00,
2013-01-01 11:21:00,47.8,47.0,30.00,SW,214,2.0,3.0,97,0.00,,,0.65,Wunderground v.1.15,2013-01-01 16:21:00,
2013-01-01 11:22:00,47.8,47.0,30.01,WSW,248,3.0,-999.0,97,0.02,,,0.71,Wunderground v.1.15,2013-01-01 16:22:00,
2013-01-01 11:23:00,47.8,47.0,30.00,SW,216,3.0,3.0,97,0.00,,,0.65,Wunderground v.1.15,2013-01-01 16:23:00,
2013-01-01 11:26:00,47.8,47.0,30.01,WNW,284,2.0,4.0,97,0.00,,,0.65,Wunderground v.1.15,2013-01-01 16:26:00,
2013-01-01 11:27:00,47.6,46.8,30.02,NW,315,1.0,-999.0,97,0.03,,,0.71,Wunderground v.1.15,2013-01-01 16:27:00,
2013-01-01 11:28:00,47.6,46.8,30.02,NW,315,4.0,6.0,97,0.00,,,0.65,Wunderground v.1.15,2013-01-01 16:28:00,
2013-01-01 11:29:00,47.6,46.8,30.02,NW,315,2.0,6.0,97,0.00,,,0.65,Wunderground v.1.15,2013-01-01 16:29:00,
2013-01-01 11:31:00,47.6,46.8,30.01,NW,315,1.0,2.0,97,0.00,,,0.66,Wunderground v.1.15,2013-01-01 16:31:00,
2013-01-01 11:32:00,48.0,47.2,30.01,NW,315,1.0,-999.0,97,0.02,,,0.71,Wunderground v.1.15,2013-01-01 16:32:00,
2013-01-01 11:33:00,47.7,46.9,30.01,NW,315,0.0,2.0,97,0.00,,,0.66,Wunderground v.1.15,2013-01-01 16:33:00,
2013-01-01 11:34:00,47.8,47.0,30.01,NW,315,1.0,2.0,97,0.00,,,0.66,Wunderground v.1.15,2013-01-01 16:34:00,
2013-01-01 11:37:00,48.0,47.2,30.01,NW,315,0.0,3.0,97,0.00,,,0.66,Wunderground v.1.15,2013-01-01 16:37:00,
2013-01-01 11:38:00,48.3,47.5,30.01,NW,315,2.0,4.0,97,0.00,,,0.66,Wunderground v.1.15,2013-01-01 16:38:00,
2013-01-01 11:39:00,48.4,47.6,30.01,NW,315,0.0,4.0,97,0.00,,,0.66,Wunderground v.1.15,2013-01-01 16:39:00,
2013-01-01 11:42:00,48.6,47.8,30.01,NW,315,2.0,2.0,97,0.00,,,0.66,Wunderground v.1.15,2013-01-01 16:42:00,
2013-01-01 11:44:00,48.7,47.9,30.01,NW,315,2.0,2.0,97,0.00,,,0.66,Wunderground v.1.15,2013-01-01 16:44:00,
2013-01-01 11:45:00,48.7,47.9,30.01,NW,315,1.0,2.0,97,0.00,,,0.66,Wunderground v.1.15,2013-01-01 16:45:00,
2013-01-01 11:47:00,48.7,47.9,30.01,NW,315,2.0,3.0,97,0.00,,,0.66,Wunderground v.1.15,2013-01-01 16:47:00,
2013-01-01 11:48:00,48.7,47.9,30.01,NW,315,1.0,3.0,97,0.00,,,0.66,Wunderground v.1.15,2013-01-01 16:48:00,
2013-01-01 11:50:00,48.7,47.9,30.01,NW,315,1.0,3.0,97,0.00,,,0.66,Wunderground v.1.15,2013-01-01 16:50:00,
2013-01-01 11:52:00,48.6,47.8,30.01,NW,315,0.0,3.0,97,0.00,,,0.66,Wunderground v.1.15,2013-01-01 16:52:00,
2013-01-01 11:54:00,48.6,47.8,30.01,NW,315,0.0,3.0,97,0.00,,,0.67,Wunderground v.1.15,2013-01-01 16:54:00,
2013-01-01 11:55:00,48.6,47.8,30.01,NW,315,2.0,3.0,97,0.00,,,0.67,Wunderground v.1.15,2013-01-01 16:55:00,
2013-01-01 11:56:00,48.5,47.7,30.01,NW,315,5.0,5.0,97,0.00,,,0.67,Wunderground v.1.15,2013-01-01 16:56:00,
2013-01-01 11:57:00,48.5,47.7,30.01,NW,315,2.0,5.0,97,0.00,,,0.67,Wunderground v.1.15,2013-01-01 16:57:00,
2013-01-01 11:59:00,48.4,47.6,30.01,NW,315,4.0,5.0,97,0.00,,,0.67,Wunderground v.1.15,2013-01-01 16:59:00,
2013-01-01 12:00:00,48.4,47.6,30.01,NW,317,3.0,5.0,97,0.00,,,0.67,Wunderground v.1.15,2013-01-01 17:00:00,
2013-01-01 12:02:00,48.3,47.5,30.01,NW,317,2.0,2.0,97,0.00,,,0.67,Wunderground v.1.15,2013-01-01 17:02:00,
2013-01-01 12:04:00,48.3,47.5,30.01,NW,317,1.0,3.0,97,0.00,,,0.67,Wunderground v.1.15,2013-01-01 17:04:00,
2013-01-01 12:05:00,48.3,47.5,30.01,NW,317,0.0,3.0,97,0.00,,,0.67,Wunderground v.1.15,2013-01-01 17:05:00,
2013-01-01 12:07:00,48.4,47.6,30.01,NW,317,2.0,3.0,97,0.04,,,0.67,Wunderground v.1.15,2013-01-01 17:07:00,
2013-01-01 12:08:00,48.4,47.6,30.01,NW,317,1.0,3.0,97,0.04,,,0.68,Wunderground v.1.15,2013-01-01 17:08:00,
2013-01-01 12:09:00,48.3,47.5,30.01,NW,317,1.0,3.0,97,0.04,,,0.68,Wunderground v.1.15,2013-01-01 17:09:00,
2013-01-01 12:10:00,48.3,47.5,30.01,NW,317,0.0,2.0,97,0.04,,,0.68,Wunderground v.1.15,2013-01-01 17:10:00,
2013-01-01 12:12:00,48.5,47.7,30.02,NW,315,3.0,-999.0,97,0.03,,,0.71,Wunderground v.1.15,2013-01-01 17:12:00,
2013-01-01 12:13:00,48.3,47.5,30.02,NW,317,2.0,4.0,97,0.04,,,0.68,Wunderground v.1.15,2013-01-01 17:13:00,
2013-01-01 12:15:00,48.4,47.6,30.02,NW,317,2.0,4.0,97,0.04,,,0.68,Wunderground v.1.15,2013-01-01 17:15:00,
2013-01-01 12:17:00,48.6,47.8,30.02,NW,315,2.0,-999.0,97,0.04,,,0.71,Wunderground v.1.15,2013-01-01 17:17:00,
2013-01-01 12:18:00,48.5,47.7,30.02,NW,317,2.0,5.0,97,0.04,,,0.68,Wunderground v.1.15,2013-01-01 17:18:00,
2013-01-01 12:19:00,48.6,47.8,30.02,NW,317,1.0,5.0,97,0.05,,,0.68,Wunderground v.1.15,2013-01-01 17:19:00,
2013-01-01 12:20:00,48.6,47.8,30.02,NW,317,3.0,3.0,97,0.05,,,0.69,Wunderground v.1.15,2013-01-01 17:20:00,
2013-01-01 12:22:00,48.1,48.1,30.01,NW,315,2.0,-999.0,100,0.04,,,0.71,Wunderground v.1.15,2013-01-01 17:22:00,
2013-01-01 12:27:00,48.0,47.2,30.01,NW,317,1.0,5.0,97,0.05,,,0.69,Wunderground v.1.15,2013-01-01 17:27:00,
2013-01-01 12:32:00,47.8,47.0,30.00,NW,317,0.0,2.0,97,0.05,,,0.70,Wunderground v.1.15,2013-01-01 17:32:00,
2013-01-01 12:33:00,47.8,47.0,30.00,NW,317,2.0,2.0,97,0.05,,,0.70,Wunderground v.1.15,2013-01-01 17:33:00,
2013-01-01 12:37:00,47.7,46.9,30.00,NW,317,1.0,2.0,97,0.05,,,0.70,Wunderground v.1.15,2013-01-01 17:37:00,
2013-01-01 12:38:00,47.7,46.9,30.00,NW,317,0.0,2.0,97,0.05,,,0.70,Wunderground v.1.15,2013-01-01 17:38:00,
2013-01-01 12:40:00,47.7,46.9,29.99,NW,317,0.0,1.0,97,0.05,,,0.70,Wunderground v.1.15,2013-01-01 17:40:00,
2013-01-01 12:42:00,47.7,46.9,29.99,NW,317,2.0,3.0,97,0.05,,,0.70,Wunderground v.1.15,2013-01-01 17:42:00,
2013-01-01 12:43:00,47.8,47.0,29.99,NW,317,0.0,3.0,97,0.05,,,0.70,Wunderground v.1.15,2013-01-01 17:43:00,
2013-01-01 12:44:00,47.8,47.0,29.99,NW,317,1.0,3.0,97,0.05,,,0.70,Wunderground v.1.15,2013-01-01 17:44:00,
2013-01-01 12:45:00,47.8,47.0,29.99,NW,317,2.0,3.0,97,0.05,,,0.70,Wunderground v.1.15,2013-01-01 17:45:00,
2013-01-01 12:47:00,47.8,47.0,30.00,NW,317,0.0,3.0,97,0.04,,,0.70,Wunderground v.1.15,2013-01-01 17:47:00,
2013-01-01 12:48:00,47.8,47.0,29.99,NW,317,0.0,3.0,97,0.04,,,0.70,Wunderground v.1.15,2013-01-01 17:48:00,
2013-01-01 12:49:00,47.8,47.0,29.99,NW,317,1.0,3.0,97,0.00,,,0.70,Wunderground v.1.15,2013-01-01 17:49:00,
2013-01-01 12:50:00,47.8,47.0,29.99,NW,317,1.0,1.0,97,0.00,,,0.70,Wunderground v.1.15,2013-01-01 17:50:00,
2013-01-01 12:52:00,47.8,47.0,29.99,NW,317,1.0,2.0,97,0.00,,,0.70,Wunderground v.1.15,2013-01-01 17:52:00,
2013-01-01 12:53:00,47.8,47.0,29.99,NW,317,0.0,2.0,97,0.00,,,0.70,Wunderground v.1.15,2013-01-01 17:53:00,
2013-01-01 12:54:00,47.9,47.1,29.99,NW,317,1.0,2.0,97,0.00,,,0.70,Wunderground v.1.15,2013-01-01 17:54:00,
2013-01-01 12:56:00,47.9,47.1,29.99,NW,317,0.0,2.0,97,0.00,,,0.70,Wunderground v.1.15,2013-01-01 17:56:00,
2013-01-01 12:57:00,48.1,47.3,30.00,NW,315,0.0,-999.0,97,0.04,,,0.71,Wunderground v.1.15,2013-01-01 17:57:00,
2013-01-01 12:58:00,48.0,47.2,29.99,NW,317,1.0,2.0,97,0.00,,,0.71,Wunderground v.1.15,2013-01-01 17:58:00,
2013-01-01 12:59:00,48.1,47.3,30.00,NW,317,0.0,2.0,97,0.00,,,0.71,Wunderground v.1.15,2013-01-01 17:59:00,
2013-01-01 13:00:00,48.1,47.3,30.00,NW,317,0.0,1.0,97,0.00,,,0.71,Wunderground v.1.15,2013-01-01 18:00:00,
2013-01-01 13:01:00,48.1,47.3,30.00,NW,317,0.0,1.0,97,0.00,,,0.71,Wunderground v.1.15,2013-01-01 18:01:00,
2013-01-01 13:02:00,48.2,47.4,29.99,NW,315,1.0,-999.0,97,0.04,,,0.74,Wunderground v.1.15,2013-01-01 18:02:00,
2013-01-01 13:03:00,48.2,47.4,29.99,NW,317,0.0,1.0,97,0.00,,,0.71,Wunderground v.1.15,2013-01-01 18:03:00,
2013-01-01 13:05:00,48.2,47.4,29.99,NW,317,1.0,2.0,97,0.00,,,0.71,Wunderground v.1.15,2013-01-01 18:05:00,
2013-01-01 13:06:00,48.2,47.4,29.99,NW,317,2.0,2.0,97,0.00,,,0.71,Wunderground v.1.15,2013-01-01 18:06:00,
2013-01-01 13:07:00,48.2,47.4,29.99,NW,315,2.0,-999.0,97,0.03,,,0.74,Wunderground v.1.15,2013-01-01 18:07:00,
2013-01-01 13:12:00,48.2,48.2,29.99,NW,315,2.0,-999.0,100,0.03,,,0.74,Wunderground v.1.15,2013-01-01 18:12:00,
2013-01-01 13:17:00,48.3,47.5,29.98,NW,315,0.0,-999.0,97,0.02,,,0.74,Wunderground v.1.15,2013-01-01 18:17:00,
2013-01-01 13:22:00,48.4,47.6,29.98,NW,315,2.0,-999.0,97,0.03,,,0.74,Wunderground v.1.15,2013-01-01 18:22:00,
2013-01-01 13:27:00,48.4,47.6,29.97,NW,315,1.0,-999.0,97,0.03,,,0.74,Wunderground v.1.15,2013-01-01 18:27:00,
2013-01-01 13:32:00,48.5,47.7,29.97,NW,315,2.0,-999.0,97,0.02,,,0.74,Wunderground v.1.15,2013-01-01 18:32:00,
2013-01-01 13:37:00,48.7,47.9,29.97,NW,315,2.0,-999.0,97,0.03,,,0.74,Wunderground v.1.15,2013-01-01 18:37:00,
2013-01-01 13:42:00,49.0,48.2,29.97,NW,315,3.0,-999.0,97,0.03,,,0.74,Wunderground v.1.15,2013-01-01 18:42:00,
2013-01-01 13:47:00,49.0,48.2,29.96,NW,315,1.0,-999.0,97,0.04,,,0.74,Wunderground v.1.15,2013-01-01 18:47:00,
2013-01-01 13:52:00,49.1,48.3,29.95,NW,315,2.0,-999.0,97,0.04,,,0.74,Wunderground v.1.15,2013-01-01 18:52:00,
2013-01-01 13:57:00,49.1,48.3,29.95,NW,315,2.0,-999.0,97,0.03,,,0.74,Wunderground v.1.15,2013-01-01 18:57:00,
2013-01-01 14:02:00,49.1,48.3,29.94,NW,315,0.0,-999.0,97,0.03,,,0.74,Wunderground v.1.15,2013-01-01 19:02:00,
2013-01-01 14:07:00,49.3,48.5,29.94,NW,315,0.0,-999.0,97,0.03,,,0.74,Wunderground v.1.15,2013-01-01 19:07:00,
2013-01-01 14:18:00,49.4,48.6,29.94,NW,315,0.0,-999.0,97,0.03,,,0.74,Wunderground v.1.15,2013-01-01 19:18:00,
2013-01-01 14:23:00,49.6,48.8,29.94,NW,317,2.0,3.0,97,0.00,,,0.74,Wunderground v.1.15,2013-01-01 19:23:00,
2013-01-01 14:28:00,49.6,48.8,29.94,NW,317,1.0,1.0,97,0.00,,,0.74,Wunderground v.1.15,2013-01-01 19:28:00,
2013-01-01 14:33:00,49.7,48.9,29.95,NW,317,1.0,2.0,97,0.00,,,0.74,Wunderground v.1.15,2013-01-01 19:33:00,
2013-01-01 14:34:00,49.6,48.8,29.95,NW,317,1.0,2.0,97,0.00,,,0.74,Wunderground v.1.15,2013-01-01 19:34:00,
2013-01-01 14:38:00,49.6,48.8,29.95,NW,317,0.0,1.0,97,0.00,,,0.74,Wunderground v.1.15,2013-01-01 19:38:00,
2013-01-01 14:39:00,49.6,48.8,29.95,NW,317,0.0,1.0,97,0.00,,,0.74,Wunderground v.1.15,2013-01-01 19:39:00,
2013-01-01 14:43:00,49.6,48.8,29.95,NW,317,1.0,3.0,97,0.00,,,0.75,Wunderground v.1.15,2013-01-01 19:43:00,
2013-01-01 14:44:00,49.6,48.8,29.95,NW,317,1.0,3.0,97,0.00,,,0.75,Wunderground v.1.15,2013-01-01 19:44:00,
2013-01-01 14:49:00,49.7,48.9,29.95,NW,317,0.0,1.0,97,0.00,,,0.75,Wunderground v.1.15,2013-01-01 19:49:00,
2013-01-01 14:50:00,49.7,48.9,29.95,NW,317,0.0,1.0,97,0.07,,,0.76,Wunderground v.1.15,2013-01-01 19:50:00,
2013-01-01 14:54:00,49.7,48.9,29.95,NW,317,0.0,1.0,97,0.07,,,0.76,Wunderground v.1.15,2013-01-01 19:54:00,
2013-01-01 14:55:00,49.7,48.9,29.95,NW,317,1.0,1.0,97,0.07,,,0.76,Wunderground v.1.15,2013-01-01 19:55:00,
2013-01-01 14:59:00,49.6,48.8,29.95,NW,317,0.0,0.0,97,0.06,,,0.76,Wunderground v.1.15,2013-01-01 19:59:00,
2013-01-01 15:00:00,49.6,48.8,29.95,NW,317,1.0,1.0,97,0.06,,,0.77,Wunderground v.1.15,2013-01-01 20:00:00,
2013-01-01 15:04:00,49.7,48.9,29.95,NW,317,0.0,1.0,97,0.06,,,0.77,Wunderground v.1.15,2013-01-01 20:04:00,
2013-01-01 15:05:00,49.6,48.8,29.95,NW,317,0.0,1.0,97,0.06,,,0.77,Wunderground v.1.15,2013-01-01 20:05:00,
2013-01-01 15:09:00,49.7,48.9,29.95,NW,317,0.0,1.0,97,0.06,,,0.77,Wunderground v.1.15,2013-01-01 20:09:00,
2013-01-01 15:10:00,49.7,48.9,29.95,NW,317,0.0,0.0,97,0.06,,,0.78,Wunderground v.1.15,2013-01-01 20:10:00,
2013-01-01 15:14:00,49.7,48.9,29.94,NW,317,0.0,0.0,97,0.06,,,0.78,Wunderground v.1.15,2013-01-01 20:14:00,
2013-01-01 15:15:00,49.7,48.9,29.95,NW,317,0.0,0.0,97,0.06,,,0.78,Wunderground v.1.15,2013-01-01 20:15:00,
2013-01-01 15:16:00,49.7,48.9,29.95,NW,317,0.0,1.0,97,0.06,,,0.78,Wunderground v.1.15,2013-01-01 20:16:00,
2013-01-01 15:19:00,49.7,48.9,29.94,NW,317,1.0,1.0,97,0.06,,,0.78,Wunderground v.1.15,2013-01-01 20:19:00,
2013-01-01 15:20:00,49.8,49.0,29.94,NW,317,0.0,0.0,97,0.06,,,0.78,Wunderground v.1.15,2013-01-01 20:20:00,
2013-01-01 15:21:00,49.8,49.0,29.94,NW,317,0.0,0.0,97,0.05,,,0.78,Wunderground v.1.15,2013-01-01 20:21:00,
2013-01-01 15:22:00,49.8,49.0,29.94,NW,317,0.0,0.0,97,0.05,,,0.78,Wunderground v.1.15,2013-01-01 20:22:00,
2013-01-01 15:24:00,49.7,48.9,29.94,NW,317,0.0,0.0,97,0.04,,,0.79,Wunderground v.1.15,2013-01-01 20:24:00,
2013-01-01 15:25:00,49.8,49.0,29.94,NW,317,0.0,0.0,97,0.04,,,0.79,Wunderground v.1.15,2013-01-01 20:25:00,
2013-01-01 15:26:00,49.8,49.0,29.94,NW,317,0.0,0.0,97,0.04,,,0.79,Wunderground v.1.15,2013-01-01 20:26:00,
2013-01-01 15:27:00,49.8,49.0,29.94,NW,317,0.0,0.0,97,0.04,,,0.79,Wunderground v.1.15,2013-01-01 20:27:00,
2013-01-01 15:30:00,49.8,49.0,29.94,NW,317,0.0,0.0,97,0.04,,,0.79,Wunderground v.1.15,2013-01-01 20:30:00,
2013-01-01 15:31:00,49.8,49.0,29.94,NW,317,0.0,0.0,97,0.04,,,0.79,Wunderground v.1.15,2013-01-01 20:31:00,
2013-01-01 15:33:00,49.8,49.0,29.94,NW,317,0.0,0.0,97,0.04,,,0.79,Wunderground v.1.15,2013-01-01 20:33:00,
2013-01-01 15:35:00,49.9,49.1,29.94,NW,317,0.0,1.0,97,0.04,,,0.79,Wunderground v.1.15,2013-01-01 20:35:00,
2013-01-01 15:36:00,49.9,49.1,29.94,NW,317,0.0,1.0,97,0.04,,,0.79,Wunderground v.1.15,2013-01-01 20:36:00,
2013-01-01 15:39:00,49.9,49.1,29.94,NW,317,0.0,1.0,97,0.04,,,0.79,Wunderground v.1.15,2013-01-01 20:39:00,
2013-01-01 15:40:00,50.0,49.2,29.94,NW,317,0.0,0.0,97,0.04,,,0.79,Wunderground v.1.15,2013-01-01 20:40:00,
2013-01-01 15:41:00,50.0,49.2,29.94,NW,317,0.0,1.0,97,0.00,,,0.79,Wunderground v.1.15,2013-01-01 20:41:00,
2013-01-01 15:44:00,50.0,49.2,29.94,NW,317,0.0,1.0,97,0.00,,,0.80,Wunderground v.1.15,2013-01-01 20:44:00,
2013-01-01 15:45:00,50.1,49.3,29.94,NW,317,0.0,1.0,97,0.00,,,0.80,Wunderground v.1.15,2013-01-01 20:45:00,
2013-01-01 15:47:00,50.1,49.3,29.94,NW,317,0.0,1.0,97,0.00,,,0.80,Wunderground v.1.15,2013-01-01 20:47:00,
2013-01-01 15:49:00,50.1,49.3,29.94,NW,317,0.0,1.0,97,0.00,,,0.80,Wunderground v.1.15,2013-01-01 20:49:00,
2013-01-01 15:50:00,50.1,49.3,29.94,NW,317,0.0,0.0,97,0.00,,,0.80,Wunderground v.1.15,2013-01-01 20:50:00,
2013-01-01 15:52:00,50.1,49.3,29.94,NW,317,0.0,0.0,97,0.00,,,0.80,Wunderground v.1.15,2013-01-01 20:52:00,
2013-01-01 15:54:00,50.2,49.4,29.94,NW,317,0.0,1.0,97,0.00,,,0.80,Wunderground v.1.15,2013-01-01 20:54:00,
2013-01-01 15:55:00,50.2,49.4,29.95,NW,317,0.0,1.0,97,0.00,,,0.80,Wunderground v.1.15,2013-01-01 20:55:00,
2013-01-01 15:56:00,50.2,49.4,29.94,NW,317,0.0,1.0,97,0.00,,,0.80,Wunderground v.1.15,2013-01-01 20:56:00,
2013-01-01 15:57:00,50.2,49.4,29.94,NW,317,0.0,1.0,97,0.00,,,0.80,Wunderground v.1.15,2013-01-01 20:57:00,
2013-01-01 15:59:00,50.2,49.4,29.95,NW,317,0.0,1.0,97,0.04,,,0.81,Wunderground v.1.15,2013-01-01 20:59:00,
2013-01-01 16:00:00,50.3,49.5,29.95,NW,317,0.0,0.0,97,0.04,,,0.81,Wunderground v.1.15,2013-01-01 21:00:00,
2013-01-01 16:01:00,50.3,49.5,29.95,NW,317,0.0,0.0,97,0.04,,,0.81,Wunderground v.1.15,2013-01-01 21:01:00,
2013-01-01 16:02:00,50.3,49.5,29.95,NW,317,0.0,0.0,97,0.04,,,0.81,Wunderground v.1.15,2013-01-01 21:02:00,
2013-01-01 16:04:00,50.3,49.5,29.95,NW,317,0.0,0.0,97,0.04,,,0.81,Wunderground v.1.15,2013-01-01 21:04:00,
2013-01-01 16:05:00,50.3,49.5,29.95,NW,317,0.0,0.0,97,0.04,,,0.81,Wunderground v.1.15,2013-01-01 21:05:00,
2013-01-01 16:07:00,50.3,49.5,29.95,NW,317,0.0,0.0,97,0.04,,,0.81,Wunderground v.1.15,2013-01-01 21:07:00,
2013-01-01 16:09:00,50.3,49.5,29.95,NW,317,0.0,0.0,97,0.04,,,0.81,Wunderground v.1.15,2013-01-01 21:09:00,
2013-01-01 16:10:00,50.3,49.5,29.95,NW,317,0.0,0.0,97,0.04,,,0.81,Wunderground v.1.15,2013-01-01 21:10:00,
2013-01-01 16:12:00,50.3,49.5,29.95,NW,317,0.0,0.0,97,0.04,,,0.81,Wunderground v.1.15,2013-01-01 21:12:00,
2013-01-01 16:13:00,50.4,49.6,29.95,NW,317,0.0,0.0,97,0.04,,,0.81,Wunderground v.1.15,2013-01-01 21:13:00,
2013-01-01 16:14:00,50.4,49.6,29.95,NW,317,0.0,1.0,97,0.04,,,0.82,Wunderground v.1.15,2013-01-01 21:14:00,
2013-01-01 16:16:00,50.3,49.5,29.95,NW,317,0.0,1.0,97,0.04,,,0.82,Wunderground v.1.15,2013-01-01 21:16:00,
2013-01-01 16:17:00,50.4,49.6,29.95,NW,317,0.0,1.0,97,0.04,,,0.82,Wunderground v.1.15,2013-01-01 21:17:00,
2013-01-01 16:18:00,50.3,49.5,29.95,NW,317,0.0,1.0,97,0.04,,,0.82,Wunderground v.1.15,2013-01-01 21:18:00,
2013-01-01 16:20:00,50.3,49.5,29.95,NW,317,1.0,1.0,97,0.04,,,0.82,Wunderground v.1.15,2013-01-01 21:20:00,
2013-01-01 16:21:00,50.3,49.5,29.95,NW,317,0.0,1.0,97,0.04,,,0.82,Wunderground v.1.15,2013-01-01 21:21:00,
2013-01-01 16:22:00,50.3,49.5,29.95,NW,317,1.0,1.0,97,0.04,,,0.82,Wunderground v.1.15,2013-01-01 21:22:00,
2013-01-01 16:23:00,50.3,49.5,29.95,NW,317,0.0,1.0,97,0.04,,,0.82,Wunderground v.1.15,2013-01-01 21:23:00,
2013-01-01 16:25:00,50.2,49.4,29.95,NW,317,0.0,1.0,97,0.04,,,0.82,Wunderground v.1.15,2013-01-01 21:25:00,
2013-01-01 16:26:00,50.2,49.4,29.95,NW,317,0.0,1.0,97,0.04,,,0.82,Wunderground v.1.15,2013-01-01 21:26:00,
2013-01-01 16:28:00,50.2,49.4,29.95,NW,317,0.0,1.0,97,0.05,,,0.83,Wunderground v.1.15,2013-01-01 21:28:00,
2013-01-01 16:30:00,50.1,49.3,29.95,NW,317,0.0,1.0,97,0.05,,,0.83,Wunderground v.1.15,2013-01-01 21:30:00,
2013-01-01 16:31:00,50.1,49.3,29.95,NW,317,0.0,1.0,97,0.05,,,0.83,Wunderground v.1.15,2013-01-01 21:31:00,
2013-01-01 16:33:00,50.1,49.3,29.96,NW,317,1.0,1.0,97,0.05,,,0.83,Wunderground v.1.15,2013-01-01 21:33:00,
2013-01-01 16:34:00,50.0,49.2,29.96,NW,317,0.0,2.0,97,0.05,,,0.83,Wunderground v.1.15,2013-01-01 21:34:00,
2013-01-01 16:35:00,50.0,50.0,29.96,NW,317,0.0,2.0,100,0.05,,,0.83,Wunderground v.1.15,2013-01-01 21:35:00,
2013-01-01 16:37:00,50.0,49.2,29.96,NW,317,0.0,2.0,97,0.06,,,0.84,Wunderground v.1.15,2013-01-01 21:37:00,
2013-01-01 16:38:00,49.9,49.1,29.96,NW,317,0.0,2.0,97,0.06,,,0.84,Wunderground v.1.15,2013-01-01 21:38:00,
2013-01-01 16:39:00,49.9,49.1,29.96,NW,317,0.0,2.0,97,0.06,,,0.84,Wunderground v.1.15,2013-01-01 21:39:00,
2013-01-01 16:40:00,49.9,49.1,29.96,NW,317,0.0,0.0,97,0.06,,,0.84,Wunderground v.1.15,2013-01-01 21:40:00,
2013-01-01 16:43:00,49.9,49.1,29.96,NW,317,0.0,1.0,97,0.11,,,0.85,Wunderground v.1.15,2013-01-01 21:43:00,
2013-01-01 16:44:00,49.9,49.1,29.95,NW,317,0.0,1.0,97,0.11,,,0.85,Wunderground v.1.15,2013-01-01 21:44:00,
2013-01-01 16:45:00,49.9,49.1,29.96,NW,317,0.0,1.0,97,0.11,,,0.85,Wunderground v.1.15,2013-01-01 21:45:00,
2013-01-01 16:48:00,49.9,49.1,29.95,NW,317,0.0,1.0,97,0.13,,,0.86,Wunderground v.1.15,2013-01-01 21:48:00,
2013-01-01 16:49:00,49.9,49.1,29.95,NW,317,0.0,1.0,97,0.13,,,0.86,Wunderground v.1.15,2013-01-01 21:49:00,
2013-01-01 16:51:00,49.9,49.1,29.95,NW,317,0.0,0.0,97,0.13,,,0.86,Wunderground v.1.15,2013-01-01 21:51:00,
2013-01-01 16:53:00,49.9,49.1,29.95,NW,317,0.0,0.0,97,0.09,,,0.86,Wunderground v.1.15,2013-01-01 21:53:00,
2013-01-01 16:54:00,49.9,49.1,29.95,NW,317,0.0,0.0,97,0.07,,,0.86,Wunderground v.1.15,2013-01-01 21:54:00,
2013-01-01 16:56:00,49.9,49.1,29.95,NW,317,0.0,0.0,97,0.06,,,0.86,Wunderground v.1.15,2013-01-01 21:56:00,
2013-01-01 16:58:00,49.9,49.1,29.95,NW,317,0.0,0.0,97,0.06,,,0.87,Wunderground v.1.15,2013-01-01 21:58:00,
2013-01-01 16:59:00,49.9,49.1,29.94,NW,317,0.0,0.0,97,0.06,,,0.87,Wunderground v.1.15,2013-01-01 21:59:00,
2013-01-01 17:01:00,49.9,49.1,29.94,NW,317,0.0,0.0,97,0.06,,,0.87,Wunderground v.1.15,2013-01-01 22:01:00,
2013-01-01 17:03:00,49.9,49.1,29.94,NW,317,0.0,0.0,97,0.06,,,0.87,Wunderground v.1.15,2013-01-01 22:03:00,
2013-01-01 17:05:00,49.9,49.1,29.94,NW,317,0.0,0.0,97,0.06,,,0.87,Wunderground v.1.15,2013-01-01 22:05:00,
2013-01-01 17:06:00,49.9,49.1,29.94,NW,317,1.0,1.0,97,0.06,,,0.87,Wunderground v.1.15,2013-01-01 22:06:00,
2013-01-01 17:08:00,49.9,49.1,29.94,NW,317,0.0,1.0,97,0.05,,,0.88,Wunderground v.1.15,2013-01-01 22:08:00,
2013-01-01 17:10:00,49.9,49.1,29.94,NW,317,0.0,1.0,97,0.05,,,0.88,Wunderground v.1.15,2013-01-01 22:10:00,
2013-01-01 17:11:00,49.9,49.1,29.95,NW,317,0.0,0.0,97,0.05,,,0.88,Wunderground v.1.15,2013-01-01 22:11:00,
2013-01-01 17:13:00,49.8,49.0,29.95,NW,317,0.0,0.0,97,0.05,,,0.88,Wunderground v.1.15,2013-01-01 22:13:00,
2013-01-01 17:15:00,49.8,49.0,29.95,NW,317,0.0,0.0,97,0.05,,,0.88,Wunderground v.1.15,2013-01-01 22:15:00,
2013-01-01 17:16:00,49.8,49.0,29.95,NW,317,0.0,0.0,97,0.05,,,0.88,Wunderground v.1.15,2013-01-01 22:16:00,
2013-01-01 17:20:00,49.8,49.0,29.95,NW,317,0.0,1.0,97,0.05,,,0.88,Wunderground v.1.15,2013-01-01 22:20:00,
2013-01-01 17:22:00,49.8,49.0,29.95,NW,317,0.0,0.0,97,0.04,,,0.88,Wunderground v.1.15,2013-01-01 22:22:00,
2013-01-01 17:25:00,49.8,49.0,29.95,NW,317,0.0,0.0,97,0.04,,,0.88,Wunderground v.1.15,2013-01-01 22:25:00,
2013-01-01 17:27:00,49.8,49.0,29.95,NW,317,0.0,0.0,97,0.00,,,0.88,Wunderground v.1.15,2013-01-01 22:27:00,
2013-01-01 17:30:00,49.8,49.0,29.94,NW,317,0.0,0.0,97,0.00,,,0.88,Wunderground v.1.15,2013-01-01 22:30:00,
2013-01-01 17:32:00,49.8,49.0,29.94,NW,317,0.0,0.0,97,0.00,,,0.89,Wunderground v.1.15,2013-01-01 22:32:00,
2013-01-01 17:35:00,49.8,49.0,29.94,NW,317,0.0,0.0,97,0.00,,,0.89,Wunderground v.1.15,2013-01-01 22:35:00,
2013-01-01 17:38:00,49.7,48.9,29.94,NW,317,0.0,0.0,97,0.00,,,0.89,Wunderground v.1.15,2013-01-01 22:38:00,
2013-01-01 17:40:00,49.7,48.9,29.94,NW,317,0.0,0.0,97,0.00,,,0.89,Wunderground v.1.15,2013-01-01 22:40:00,
2013-01-01 17:41:00,49.7,48.9,29.94,NW,317,0.0,0.0,97,0.00,,,0.89,Wunderground v.1.15,2013-01-01 22:41:00,
2013-01-01 17:43:00,49.7,48.9,29.94,NW,317,0.0,0.0,97,0.00,,,0.89,Wunderground v.1.15,2013-01-01 22:43:00,
2013-01-01 17:45:00,49.7,48.9,29.94,NW,317,0.0,0.0,97,0.06,,,0.90,Wunderground v.1.15,2013-01-01 22:45:00,
2013-01-01 17:46:00,49.7,48.9,29.94,NW,317,0.0,0.0,97,0.06,,,0.90,Wunderground v.1.15,2013-01-01 22:46:00,
2013-01-01 17:48:00,49.7,48.9,29.94,NW,317,0.0,1.0,97,0.06,,,0.90,Wunderground v.1.15,2013-01-01 22:48:00,
2013-01-01 17:50:00,49.7,48.9,29.95,NW,317,0.0,0.0,97,0.06,,,0.90,Wunderground v.1.15,2013-01-01 22:50:00,
2013-01-01 17:51:00,49.7,48.9,29.95,NW,317,0.0,0.0,97,0.06,,,0.90,Wunderground v.1.15,2013-01-01 22:51:00,
2013-01-01 17:53:00,49.7,48.9,29.95,NW,317,0.0,0.0,97,0.06,,,0.90,Wunderground v.1.15,2013-01-01 22:53:00,
2013-01-01 17:55:00,49.7,48.9,29.95,NW,317,0.0,0.0,97,0.05,,,0.90,Wunderground v.1.15,2013-01-01 22:55:00,
2013-01-01 17:56:00,49.7,48.9,29.95,NW,317,0.0,0.0,97,0.04,,,0.90,Wunderground v.1.15,2013-01-01 22:56:00,
2013-01-01 17:58:00,49.7,48.9,29.95,NW,317,0.0,0.0,97,0.04,,,0.90,Wunderground v.1.15,2013-01-01 22:58:00,
2013-01-01 18:00:00,49.7,48.9,29.95,NW,317,0.0,0.0,97,0.00,,,0.90,Wunderground v.1.15,2013-01-01 23:00:00,
2013-01-01 18:01:00,49.7,48.9,29.95,NW,317,0.0,0.0,97,0.00,,,0.90,Wunderground v.1.15,2013-01-01 23:01:00,
2013-01-01 18:03:00,49.6,48.8,29.95,NW,317,0.0,0.0,97,0.00,,,0.91,Wunderground v.1.15,2013-01-01 23:03:00,
2013-01-01 18:06:00,49.6,48.8,29.95,NW,317,0.0,0.0,97,0.00,,,0.91,Wunderground v.1.15,2013-01-01 23:06:00,
2013-01-01 18:07:00,49.6,48.8,29.95,NW,317,0.0,0.0,97,0.00,,,0.91,Wunderground v.1.15,2013-01-01 23:07:00,
2013-01-01 18:08:00,49.6,48.8,29.95,NW,317,0.0,0.0,97,0.00,,,0.91,Wunderground v.1.15,2013-01-01 23:08:00,
2013-01-01 18:11:00,49.6,48.8,29.95,NW,317,0.0,0.0,97,0.00,,,0.91,Wunderground v.1.15,2013-01-01 23:11:00,
2013-01-01 18:12:00,49.6,48.8,29.95,NW,317,0.0,0.0,97,0.00,,,0.91,Wunderground v.1.15,2013-01-01 23:12:00,
2013-01-01 18:14:00,49.6,48.8,29.95,NW,317,0.0,0.0,97,0.00,,,0.91,Wunderground v.1.15,2013-01-01 23:14:00,
2013-01-01 18:16:00,49.6,48.8,29.95,NW,317,0.0,0.0,97,0.00,,,0.91,Wunderground v.1.15,2013-01-01 23:16:00,
2013-01-01 18:17:00,49.6,48.8,29.95,NW,317,0.0,0.0,97,0.00,,,0.91,Wunderground v.1.15,2013-01-01 23:17:00,
2013-01-01 18:19:00,49.6,48.8,29.95,NW,317,0.0,0.0,97,0.00,,,0.91,Wunderground v.1.15,2013-01-01 23:19:00,
2013-01-01 18:21:00,49.6,48.8,29.95,NW,317,0.0,0.0,97,0.00,,,0.91,Wunderground v.1.15,2013-01-01 23:21:00,
2013-01-01 18:22:00,49.6,48.8,29.95,NW,317,0.0,0.0,97,0.00,,,0.91,Wunderground v.1.15,2013-01-01 23:22:00,
2013-01-01 18:23:00,49.6,48.8,29.95,NW,317,0.0,0.0,97,0.00,,,0.91,Wunderground v.1.15,2013-01-01 23:23:00,
2013-01-01 18:24:00,49.6,48.8,29.95,NW,317,0.0,0.0,97,0.00,,,0.92,Wunderground v.1.15,2013-01-01 23:24:00,
2013-01-01 18:27:00,49.5,48.7,29.95,NW,317,0.0,0.0,97,0.00,,,0.92,Wunderground v.1.15,2013-01-01 23:27:00,
2013-01-01 18:28:00,49.5,48.7,29.95,NW,317,0.0,0.0,97,0.00,,,0.92,Wunderground v.1.15,2013-01-01 23:28:00,
2013-01-01 18:30:00,49.6,48.8,29.95,NW,317,0.0,0.0,97,0.00,,,0.92,Wunderground v.1.15,2013-01-01 23:30:00,
2013-01-01 18:32:00,49.5,48.7,29.96,NW,317,0.0,0.0,97,0.07,,,0.92,Wunderground v.1.15,2013-01-01 23:32:00,
2013-01-01 18:33:00,49.5,48.7,29.96,NW,317,2.0,2.0,97,0.07,,,0.93,Wunderground v.1.15,2013-01-01 23:33:00,
2013-01-01 18:35:00,49.5,48.7,29.96,NW,317,1.0,3.0,97,0.07,,,0.93,Wunderground v.1.15,2013-01-01 23:35:00,
2013-01-01 18:37:00,49.4,48.6,29.96,NW,317,1.0,3.0,97,0.07,,,0.93,Wunderground v.1.15,2013-01-01 23:37:00,
2013-01-01 18:38:00,49.4,48.6,29.96,NW,317,0.0,3.0,97,0.12,,,0.94,Wunderground v.1.15,2013-01-01 23:38:00,
2013-01-01 18:40:00,49.4,48.6,29.96,NW,317,0.0,1.0,97,0.12,,,0.94,Wunderground v.1.15,2013-01-01 23:40:00,
2013-01-01 18:42:00,49.3,48.5,29.96,NW,317,0.0,1.0,97,0.11,,,0.94,Wunderground v.1.15,2013-01-01 23:42:00,
2013-01-01 18:43:00,49.3,48.5,29.96,NW,317,0.0,1.0,97,0.09,,,0.94,Wunderground v.1.15,2013-01-01 23:43:00,
2013-01-01 18:45:00,49.2,48.4,29.96,NW,317,0.0,1.0,97,0.09,,,0.95,Wunderground v.1.15,2013-01-01 23:45:00,
2013-01-01 18:47:00,49.1,48.3,29.97,North,5,1.0,5.0,97,0.18,,,0.96,Wunderground v.1.15,2013-01-01 23:47:00,
2013-01-01 18:48:00,49.1,48.3,29.97,North,5,1.0,5.0,97,0.18,,,0.96,Wunderground v.1.15,2013-01-01 23:48:00,
2013-01-01 18:49:00,49.0,48.2,29.97,North,5,0.0,5.0,97,0.18,,,0.96,Wunderground v.1.15,2013-01-01 23:49:00,
2013-01-01 18:50:00,49.0,48.2,29.97,North,5,1.0,1.0,97,0.16,,,0.96,Wunderground v.1.15,2013-01-01 23:50:00,
2013-01-01 18:53:00,48.8,48.0,29.98,North,5,1.0,3.0,97,0.13,,,0.97,Wunderground v.1.15,2013-01-01 23:53:00,
2013-01-01 18:54:00,48.7,47.9,29.98,North,360,2.0,3.0,97,0.13,,,0.97,Wunderground v.1.15,2013-01-01 23:54:00,
2013-01-01 18:56:00,48.6,47.5,29.98,North,5,0.0,3.0,96,0.18,,,0.98,Wunderground v.1.15,2013-01-01 23:56:00,
2013-01-01 18:58:00,48.5,47.4,29.98,North,5,0.0,3.0,96,0.17,,,0.98,Wunderground v.1.15,2013-01-01 23:58:00,
2013-01-01 18:59:00,48.5,47.4,29.98,North,5,0.0,3.0,96,0.14,,,0.99,Wunderground v.1.15,2013-01-01 23:59:00,
2013-01-01 19:01:00,48.4,47.3,29.98,NNE,25,0.0,2.0,96,0.22,,,0.99,Wunderground v.1.15,2013-01-02 00:01:00,
2013-01-01 19:03:00,48.4,47.3,29.98,NNE,26,0.0,2.0,96,0.22,,,1.00,Wunderground v.1.15,2013-01-02 00:03:00,
2013-01-01 19:04:00,48.4,47.6,29.99,NNE,26,0.0,2.0,97,0.22,,,1.00,Wunderground v.1.15,2013-01-02 00:04:00,
2013-01-01 19:05:00,48.3,47.5,29.99,NNE,26,0.0,2.0,97,0.17,,,1.00,Wunderground v.1.15,2013-01-02 00:05:00,
2013-01-01 19:07:00,48.3,47.5,29.98,NNE,26,0.0,2.0,97,0.15,,,1.01,Wunderground v.1.15,2013-01-02 00:07:00,
2013-01-01 19:08:00,48.3,47.5,29.98,NNE,25,0.0,2.0,97,0.23,,,1.01,Wunderground v.1.15,2013-01-02 00:08:00,
2013-01-01 19:09:00,48.3,47.5,29.98,NNE,25,0.0,2.0,97,0.23,,,1.02,Wunderground v.1.15,2013-01-02 00:09:00,
2013-01-01 19:10:00,48.2,47.4,29.98,NNE,26,0.0,0.0,97,0.23,,,1.02,Wunderground v.1.15,2013-01-02 00:10:00,
2013-01-01 19:12:00,48.2,48.2,29.98,NNE,25,0.0,1.0,100,0.21,,,1.03,Wunderground v.1.15,2013-01-02 00:12:00,
2013-01-01 19:13:00,48.2,48.2,29.98,NNE,26,0.0,1.0,100,0.26,,,1.03,Wunderground v.1.15,2013-01-02 00:13:00,
2013-01-01 19:14:00,48.2,48.2,29.98,NNE,26,0.0,1.0,100,0.26,,,1.04,Wunderground v.1.15,2013-01-02 00:14:00,
2013-01-01 19:15:00,48.2,47.1,29.98,NNE,26,0.0,1.0,96,0.25,,,1.04,Wunderground v.1.15,2013-01-02 00:15:00,
2013-01-01 19:18:00,48.1,47.3,29.98,NNE,25,0.0,1.0,97,0.15,,,1.05,Wunderground v.1.15,2013-01-02 00:18:00,
2013-01-01 19:27:00,47.9,47.1,29.97,NNE,25,0.0,2.0,97,0.10,,,1.07,Wunderground v.1.15,2013-01-02 00:27:00,
2013-01-01 19:28:00,47.9,47.1,29.97,NNE,26,0.0,2.0,97,0.10,,,1.07,Wunderground v.1.15,2013-01-02 00:28:00,
2013-01-01 19:33:00,47.9,47.1,29.97,NNE,26,1.0,2.0,97,0.11,,,1.08,Wunderground v.1.15,2013-01-02 00:33:00,
2013-01-01 19:34:00,47.9,47.1,29.97,NNE,26,2.0,2.0,97,0.11,,,1.08,Wunderground v.1.15,2013-01-02 00:34:00,
2013-01-01 19:38:00,47.8,47.0,29.97,NNE,25,0.0,2.0,97,0.10,,,1.08,Wunderground v.1.15,2013-01-02 00:38:00,
2013-01-01 19:39:00,47.8,47.0,29.97,NNE,26,0.0,2.0,97,0.09,,,1.08,Wunderground v.1.15,2013-01-02 00:39:00,
2013-01-01 19:43:00,47.8,47.0,29.97,NNE,26,0.0,1.0,97,0.05,,,1.08,Wunderground v.1.15,2013-01-02 00:43:00,
2013-01-01 19:44:00,47.8,47.0,29.97,NNE,25,0.0,1.0,97,0.05,,,1.08,Wunderground v.1.15,2013-01-02 00:44:00,
2013-01-01 19:48:00,47.8,47.0,29.97,NNE,25,0.0,1.0,97,0.04,,,1.08,Wunderground v.1.15,2013-01-02 00:48:00,
2013-01-01 19:49:00,47.8,47.0,29.97,NNE,25,0.0,1.0,97,0.04,,,1.09,Wunderground v.1.15,2013-01-02 00:49:00,
2013-01-01 19:53:00,47.7,46.9,29.97,NNE,26,0.0,0.0,97,0.04,,,1.09,Wunderground v.1.15,2013-01-02 00:53:00,
2013-01-01 19:54:00,47.7,46.9,29.98,NNE,25,0.0,0.0,97,0.04,,,1.09,Wunderground v.1.15,2013-01-02 00:54:00,
2013-01-01 19:55:00,47.7,46.9,29.98,NNE,26,0.0,0.0,97,0.04,,,1.09,Wunderground v.1.15,2013-01-02 00:55:00,
2013-01-01 19:58:00,47.7,46.9,29.98,NNE,26,0.0,0.0,97,0.04,,,1.09,Wunderground v.1.15,2013-01-02 00:58:00,
2013-01-01 20:00:00,47.7,46.9,29.98,NNE,26,0.0,0.0,97,0.04,,,1.09,Wunderground v.1.15,2013-01-02 01:00:00,
2013-01-01 20:01:00,47.7,46.9,29.98,NNE,26,0.0,0.0,97,0.05,,,1.10,Wunderground v.1.15,2013-01-02 01:01:00,
2013-01-01 20:03:00,47.7,46.9,29.98,NNE,26,0.0,0.0,97,0.05,,,1.10,Wunderground v.1.15,2013-01-02 01:03:00,
2013-01-01 20:04:00,47.7,46.9,29.98,NNE,26,0.0,0.0,97,0.05,,,1.10,Wunderground v.1.15,2013-01-02 01:04:00,
2013-01-01 20:05:00,47.7,46.9,29.98,NNE,25,0.0,0.0,97,0.05,,,1.10,Wunderground v.1.15,2013-01-02 01:05:00,
2013-01-01 20:06:00,47.7,46.9,29.98,NNE,25,0.0,0.0,97,0.05,,,1.10,Wunderground v.1.15,2013-01-02 01:06:00,
2013-01-01 20:09:00,47.6,46.8,29.98,NNE,26,0.0,0.0,97,0.05,,,1.10,Wunderground v.1.15,2013-01-02 01:09:00,
2013-01-01 20:10:00,47.6,46.8,29.98,NNE,26,0.0,0.0,97,0.07,,,1.11,Wunderground v.1.15,2013-01-02 01:10:00,
2013-01-01 20:12:00,47.6,46.8,29.99,NNE,26,0.0,0.0,97,0.07,,,1.11,Wunderground v.1.15,2013-01-02 01:12:00,
2013-01-01 20:14:00,47.6,46.8,29.98,NNE,25,0.0,0.0,97,0.07,,,1.11,Wunderground v.1.15,2013-01-02 01:14:00,
2013-01-01 20:15:00,47.6,46.8,29.98,NNE,26,0.0,0.0,97,0.07,,,1.11,Wunderground v.1.15,2013-01-02 01:15:00,
2013-01-01 20:17:00,47.6,46.8,29.99,NNE,26,0.0,0.0,97,0.08,,,1.12,Wunderground v.1.15,2013-01-02 01:17:00,
2013-01-01 20:19:00,47.6,46.8,29.98,NNE,26,0.0,0.0,97,0.08,,,1.12,Wunderground v.1.15,2013-01-02 01:19:00,
2013-01-01 20:20:00,47.6,46.8,29.98,NNE,26,0.0,0.0,97,0.08,,,1.12,Wunderground v.1.15,2013-01-02 01:20:00,
2013-01-01 20:22:00,47.5,46.7,29.99,NNE,26,0.0,0.0,97,0.08,,,1.12,Wunderground v.1.15,2013-01-02 01:22:00,
2013-01-01 20:24:00,47.5,46.7,29.99,NNE,25,0.0,0.0,97,0.08,,,1.12,Wunderground v.1.15,2013-01-02 01:24:00,
2013-01-01 20:25:00,47.5,46.7,29.99,NNE,25,0.0,0.0,97,0.07,,,1.12,Wunderground v.1.15,2013-01-02 01:25:00,
2013-01-01 20:28:00,47.5,46.7,29.99,NNE,25,0.0,0.0,97,0.05,,,1.12,Wunderground v.1.15,2013-01-02 01:28:00,
2013-01-01 20:29:00,47.4,46.6,29.99,NNE,26,0.0,0.0,97,0.05,,,1.12,Wunderground v.1.15,2013-01-02 01:29:00,
2013-01-01 20:30:00,47.5,46.7,29.99,NNE,26,0.0,0.0,97,0.04,,,1.12,Wunderground v.1.15,2013-01-02 01:30:00,
2013-01-01 20:33:00,47.4,46.6,29.98,NNE,25,0.0,0.0,97,0.04,,,1.12,Wunderground v.1.15,2013-01-02 01:33:00,
2013-01-01 20:34:00,47.4,46.6,29.98,NNE,26,0.0,0.0,97,0.00,,,1.12,Wunderground v.1.15,2013-01-02 01:34:00,
2013-01-01 20:35:00,47.4,46.6,29.98,NNE,26,0.0,0.0,97,0.00,,,1.12,Wunderground v.1.15,2013-01-02 01:35:00,
2013-01-01 20:36:00,47.4,46.6,29.98,NNE,26,0.0,0.0,97,0.00,,,1.12,Wunderground v.1.15,2013-01-02 01:36:00,
2013-01-01 20:38:00,47.4,46.6,29.98,NNE,26,0.0,0.0,97,0.00,,,1.12,Wunderground v.1.15,2013-01-02 01:38:00,
2013-01-01 20:39:00,47.4,46.6,29.98,NNE,26,1.0,1.0,97,0.00,,,1.12,Wunderground v.1.15,2013-01-02 01:39:00,
2013-01-01 20:40:00,47.4,46.6,29.98,NNE,26,0.0,0.0,97,0.00,,,1.12,Wunderground v.1.15,2013-01-02 01:40:00,
2013-01-01 20:41:00,47.4,46.6,29.98,NNE,25,0.0,0.0,97,0.00,,,1.12,Wunderground v.1.15,2013-01-02 01:41:00,
2013-01-01 20:43:00,47.4,46.6,29.97,NNE,26,3.0,3.0,97,0.00,,,1.12,Wunderground v.1.15,2013-01-02 01:43:00,
2013-01-01 20:45:00,47.4,46.6,29.97,NNE,27,1.0,3.0,97,0.00,,,1.12,Wunderground v.1.15,2013-01-02 01:45:00,
2013-01-01 20:46:00,47.3,46.5,29.97,NNE,27,0.0,3.0,97,0.00,,,1.12,Wunderground v.1.15,2013-01-02 01:46:00,
2013-01-01 20:48:00,47.3,46.5,29.97,ENE,71,2.0,4.0,97,0.00,,,1.13,Wunderground v.1.15,2013-01-02 01:48:00,
2013-01-01 20:51:00,47.3,46.5,29.97,ENE,71,1.0,1.0,97,0.00,,,1.13,Wunderground v.1.15,2013-01-02 01:51:00,
2013-01-01 20:52:00,47.3,46.5,29.97,ENE,71,1.0,2.0,97,0.00,,,1.13,Wunderground v.1.15,2013-01-02 01:52:00,
2013-01-01 20:54:00,47.2,46.4,29.97,ENE,71,2.0,2.0,97,0.00,,,1.13,Wunderground v.1.15,2013-01-02 01:54:00,
2013-01-01 20:56:00,47.2,46.4,29.97,ENE,71,0.0,2.0,97,0.00,,,1.13,Wunderground v.1.15,2013-01-02 01:56:00,
2013-01-01 20:57:00,47.2,46.4,29.97,ENE,71,0.0,2.0,97,0.00,,,1.13,Wunderground v.1.15,2013-01-02 01:57:00,
2013-01-01 20:59:00,47.2,46.4,29.97,ENE,71,0.0,2.0,97,0.00,,,1.13,Wunderground v.1.15,2013-01-02 01:59:00,
2013-01-01 21:01:00,47.1,46.3,29.97,ENE,71,1.0,3.0,97,0.00,,,1.13,Wunderground v.1.15,2013-01-02 02:01:00,
2013-01-01 21:02:00,47.1,46.3,29.97,ENE,71,0.0,3.0,97,0.00,,,1.13,Wunderground v.1.15,2013-01-02 02:02:00,
2013-01-01 21:04:00,47.1,46.3,29.97,ENE,71,3.0,3.0,97,0.00,,,1.13,Wunderground v.1.15,2013-01-02 02:04:00,
2013-01-01 21:06:00,47.0,46.2,29.97,ENE,70,1.0,3.0,97,0.00,,,1.13,Wunderground v.1.15,2013-01-02 02:06:00,
2013-01-01 21:07:00,47.0,46.2,29.97,ENE,71,0.0,3.0,97,0.00,,,1.13,Wunderground v.1.15,2013-01-02 02:07:00,
2013-01-01 21:09:00,47.0,46.2,29.97,ENE,71,1.0,3.0,97,0.00,,,1.14,Wunderground v.1.15,2013-01-02 02:09:00,
2013-01-01 21:11:00,46.9,46.1,29.97,ENE,70,1.0,4.0,97,0.00,,,1.14,Wunderground v.1.15,2013-01-02 02:11:00,
2013-01-01 21:12:00,46.9,46.1,29.97,ENE,70,0.0,4.0,97,0.00,,,1.14,Wunderground v.1.15,2013-01-02 02:12:00,
2013-01-01 21:14:00,46.9,46.1,29.98,ENE,70,0.0,4.0,97,0.00,,,1.14,Wunderground v.1.15,2013-01-02 02:14:00,
2013-01-01 21:16:00,46.8,46.0,29.98,ENE,70,0.0,4.0,97,0.00,,,1.14,Wunderground v.1.15,2013-01-02 02:16:00,
2013-01-01 21:17:00,46.8,46.0,29.98,ENE,70,0.0,4.0,97,0.00,,,1.14,Wunderground v.1.15,2013-01-02 02:17:00,
2013-01-01 21:20:00,46.8,46.0,29.98,ENE,70,0.0,0.0,97,0.00,,,1.14,Wunderground v.1.15,2013-01-02 02:20:00,
2013-01-01 21:21:00,46.7,45.9,29.97,ENE,69,1.0,1.0,97,0.00,,,1.14,Wunderground v.1.15,2013-01-02 02:21:00,
2013-01-01 21:23:00,46.7,45.9,29.98,ENE,70,0.0,2.0,97,0.00,,,1.14,Wunderground v.1.15,2013-01-02 02:23:00,
2013-01-01 21:25:00,46.7,45.9,29.98,ENE,70,1.0,2.0,97,0.00,,,1.14,Wunderground v.1.15,2013-01-02 02:25:00,
2013-01-01 21:26:00,46.7,45.9,29.98,ENE,70,0.0,2.0,97,0.00,,,1.14,Wunderground v.1.15,2013-01-02 02:26:00,
2013-01-01 21:27:00,46.7,45.9,29.98,ENE,70,0.0,2.0,97,0.00,,,1.14,Wunderground v.1.15,2013-01-02 02:27:00,
2013-01-01 21:29:00,46.6,45.8,29.98,ENE,70,0.0,2.0,97,0.00,,,1.14,Wunderground v.1.15,2013-01-02 02:29:00,
2013-01-01 21:30:00,46.6,45.8,29.98,East,80,0.0,2.0,97,0.00,,,1.14,Wunderground v.1.15,2013-01-02 02:30:00,
2013-01-01 21:32:00,46.6,45.8,29.98,East,80,0.0,2.0,97,0.00,,,1.14,Wunderground v.1.15,2013-01-02 02:32:00,
2013-01-01 21:34:00,46.5,45.7,29.98,East,80,0.0,2.0,97,0.00,,,1.15,Wunderground v.1.15,2013-01-02 02:34:00,
2013-01-01 21:35:00,46.5,45.7,29.98,East,80,0.0,2.0,97,0.00,,,1.15,Wunderground v.1.15,2013-01-02 02:35:00,
2013-01-01 21:37:00,46.5,45.7,29.99,East,80,0.0,2.0,97,0.00,,,1.15,Wunderground v.1.15,2013-01-02 02:37:00,
2013-01-01 21:40:00,46.5,45.7,29.98,East,80,0.0,2.0,97,0.00,,,1.15,Wunderground v.1.15,2013-01-02 02:40:00,
2013-01-01 21:41:00,46.5,45.7,29.99,East,80,0.0,1.0,97,0.00,,,1.15,Wunderground v.1.15,2013-01-02 02:41:00,
2013-01-01 21:42:00,46.5,45.7,30.00,East,80,0.0,1.0,97,0.00,,,1.15,Wunderground v.1.15,2013-01-02 02:42:00,
2013-01-01 21:43:00,46.5,45.7,29.99,East,80,0.0,1.0,97,0.00,,,1.15,Wunderground v.1.15,2013-01-02 02:43:00,
2013-01-01 21:45:00,46.4,45.6,29.98,East,80,0.0,1.0,97,0.05,,,1.16,Wunderground v.1.15,2013-01-02 02:45:00,
2013-01-01 21:46:00,46.4,45.6,29.99,East,80,0.0,1.0,97,0.05,,,1.16,Wunderground v.1.15,2013-01-02 02:46:00,
2013-01-01 21:47:00,46.4,45.6,29.99,East,80,0.0,1.0,97,0.05,,,1.16,Wunderground v.1.15,2013-01-02 02:47:00,
2013-01-01 21:48:00,46.4,45.6,29.99,East,80,0.0,1.0,97,0.05,,,1.16,Wunderground v.1.15,2013-01-02 02:48:00,
2013-01-01 21:50:00,46.5,45.7,29.98,East,80,1.0,2.0,97,0.12,,,1.17,Wunderground v.1.15,2013-01-02 02:50:00,
2013-01-01 21:51:00,46.4,45.6,29.98,East,80,0.0,2.0,97,0.12,,,1.17,Wunderground v.1.15,2013-01-02 02:51:00,
2013-01-01 21:52:00,46.4,45.6,29.98,East,80,0.0,2.0,97,0.12,,,1.17,Wunderground v.1.15,2013-01-02 02:52:00,
2013-01-01 21:53:00,46.4,45.6,29.98,East,80,1.0,2.0,97,0.12,,,1.17,Wunderground v.1.15,2013-01-02 02:53:00,
2013-01-01 21:56:00,46.4,45.6,29.98,East,80,0.0,2.0,97,0.09,,,1.17,Wunderground v.1.15,2013-01-02 02:56:00,
2013-01-01 21:57:00,46.4,45.6,29.98,East,80,0.0,2.0,97,0.09,,,1.18,Wunderground v.1.15,2013-01-02 02:57:00,
2013-01-01 21:58:00,46.4,45.6,29.98,East,80,0.0,2.0,97,0.09,,,1.18,Wunderground v.1.15,2013-01-02 02:58:00,
2013-01-01 22:01:00,46.4,45.6,29.98,East,79,0.0,0.0,97,0.09,,,1.18,Wunderground v.1.15,2013-01-02 03:01:00,
2013-01-01 22:03:00,46.4,45.6,29.97,East,80,0.0,1.0,97,0.09,,,1.18,Wunderground v.1.15,2013-01-02 03:03:00,
2013-01-01 22:04:00,46.3,45.5,29.96,East,80,0.0,1.0,97,0.08,,,1.18,Wunderground v.1.15,2013-01-02 03:04:00,
2013-01-01 22:06:00,46.3,45.5,29.96,East,80,1.0,2.0,97,0.06,,,1.18,Wunderground v.1.15,2013-01-02 03:06:00,
2013-01-01 22:08:00,46.3,45.5,29.97,East,80,1.0,2.0,97,0.05,,,1.18,Wunderground v.1.15,2013-01-02 03:08:00,
2013-01-01 22:09:00,46.3,45.5,29.97,East,80,1.0,2.0,97,0.05,,,1.18,Wunderground v.1.15,2013-01-02 03:09:00,
2013-01-01 22:12:00,46.3,45.5,29.98,East,80,0.0,1.0,97,0.04,,,1.18,Wunderground v.1.15,2013-01-02 03:12:00,
2013-01-01 22:13:00,46.3,45.5,29.98,East,80,1.0,2.0,97,0.04,,,1.18,Wunderground v.1.15,2013-01-02 03:13:00,
2013-01-01 22:14:00,46.3,45.5,29.97,East,80,1.0,2.0,97,0.00,,,1.18,Wunderground v.1.15,2013-01-02 03:14:00,
2013-01-01 22:17:00,46.2,45.4,29.97,East,80,1.0,2.0,97,0.00,,,1.18,Wunderground v.1.15,2013-01-02 03:17:00,
2013-01-01 22:18:00,46.2,45.4,29.97,East,80,0.0,2.0,97,0.00,,,1.18,Wunderground v.1.15,2013-01-02 03:18:00,
2013-01-01 22:19:00,46.2,45.4,29.96,East,80,1.0,2.0,97,0.00,,,1.18,Wunderground v.1.15,2013-01-02 03:19:00,
2013-01-01 22:22:00,46.2,45.4,29.96,East,80,1.0,3.0,97,0.00,,,1.18,Wunderground v.1.15,2013-01-02 03:22:00,
2013-01-01 22:23:00,46.2,45.4,29.96,East,80,1.0,3.0,97,0.00,,,1.18,Wunderground v.1.15,2013-01-02 03:23:00,
2013-01-01 22:24:00,46.2,45.4,29.96,East,80,2.0,3.0,97,0.00,,,1.18,Wunderground v.1.15,2013-01-02 03:24:00,
2013-01-01 22:27:00,46.3,45.5,29.95,East,80,1.0,3.0,97,0.00,,,1.18,Wunderground v.1.15,2013-01-02 03:27:00,
2013-01-01 22:28:00,46.3,45.5,29.96,East,80,0.0,3.0,97,0.00,,,1.18,Wunderground v.1.15,2013-01-02 03:28:00,
2013-01-01 22:30:00,46.3,45.5,29.96,East,80,0.0,3.0,97,0.00,,,1.18,Wunderground v.1.15,2013-01-02 03:30:00,
2013-01-01 22:32:00,46.3,45.5,29.96,East,80,2.0,2.0,97,0.00,,,1.18,Wunderground v.1.15,2013-01-02 03:32:00,
2013-01-01 22:33:00,46.3,45.5,29.96,East,80,0.0,2.0,97,0.00,,,1.18,Wunderground v.1.15,2013-01-02 03:33:00,
2013-01-01 22:35:00,46.3,45.5,29.96,East,80,1.0,2.0,97,0.00,,,1.18,Wunderground v.1.15,2013-01-02 03:35:00,
2013-01-01 22:37:00,46.3,45.5,29.96,East,80,0.0,2.0,97,0.00,,,1.18,Wunderground v.1.15,2013-01-02 03:37:00,
2013-01-01 22:38:00,46.3,45.5,29.96,East,79,0.0,2.0,97,0.00,,,1.18,Wunderground v.1.15,2013-01-02 03:38:00,
2013-01-01 22:40:00,46.3,45.5,29.97,East,80,0.0,2.0,97,0.00,,,1.18,Wunderground v.1.15,2013-01-02 03:40:00,
2013-01-01 22:42:00,46.3,45.5,29.97,East,80,2.0,2.0,97,0.00,,,1.18,Wunderground v.1.15,2013-01-02 03:42:00,
2013-01-01 22:43:00,46.3,45.5,29.97,East,80,0.0,2.0,97,0.00,,,1.18,Wunderground v.1.15,2013-01-02 03:43:00,
2013-01-01 22:45:00,46.3,45.5,29.97,East,80,0.0,2.0,97,0.00,,,1.18,Wunderground v.1.15,2013-01-02 03:45:00,
2013-01-01 22:48:00,46.2,45.4,29.96,East,80,0.0,2.0,97,0.00,,,1.18,Wunderground v.1.15,2013-01-02 03:48:00,
2013-01-01 22:50:00,46.2,45.4,29.96,East,80,0.0,2.0,97,0.00,,,1.18,Wunderground v.1.15,2013-01-02 03:50:00,
2013-01-01 22:53:00,46.2,45.4,29.96,East,80,0.0,0.0,97,0.00,,,1.18,Wunderground v.1.15,2013-01-02 03:53:00,
2013-01-01 22:55:00,46.2,45.4,29.96,East,80,0.0,1.0,97,0.00,,,1.18,Wunderground v.1.15,2013-01-02 03:55:00,
2013-01-01 22:58:00,46.2,45.4,29.96,East,80,0.0,1.0,97,0.00,,,1.18,Wunderground v.1.15,2013-01-02 03:58:00,
2013-01-01 22:59:00,46.2,45.4,29.96,East,80,0.0,1.0,97,0.00,,,1.18,Wunderground v.1.15,2013-01-02 03:59:00,
2013-01-01 23:00:00,46.2,45.4,29.96,East,79,0.0,0.0,97,0.00,,,1.18,Wunderground v.1.15,2013-01-02 04:00:00,
2013-01-01 23:03:00,46.2,45.4,29.96,East,80,0.0,0.0,97,0.00,,,1.18,Wunderground v.1.15,2013-01-02 04:03:00,
2013-01-01 23:04:00,46.2,45.4,29.96,East,80,0.0,1.0,97,0.00,,,1.18,Wunderground v.1.15,2013-01-02 04:04:00,
2013-01-01 23:05:00,46.2,45.4,29.96,East,80,0.0,1.0,97,0.00,,,1.18,Wunderground v.1.15,2013-01-02 04:05:00,
2013-01-01 23:08:00,46.2,45.4,29.96,East,80,2.0,2.0,97,0.00,,,1.18,Wunderground v.1.15,2013-01-02 04:08:00,
2013-01-01 23:09:00,46.2,45.4,29.96,East,80,0.0,2.0,97,0.00,,,1.18,Wunderground v.1.15,2013-01-02 04:09:00,
2013-01-01 23:11:00,46.2,45.4,29.96,East,80,0.0,0.0,97,0.00,,,1.18,Wunderground v.1.15,2013-01-02 04:11:00,
2013-01-01 23:14:00,46.2,45.4,29.97,East,80,0.0,1.0,97,0.00,,,1.18,Wunderground v.1.15,2013-01-02 04:14:00,
2013-01-01 23:16:00,46.1,45.3,29.96,East,80,0.0,1.0,97,0.00,,,1.18,Wunderground v.1.15,2013-01-02 04:16:00,
2013-01-01 23:19:00,46.1,45.3,29.96,East,80,1.0,1.0,97,0.00,,,1.18,Wunderground v.1.15,2013-01-02 04:19:00,
2013-01-01 23:20:00,46.1,45.3,29.96,East,80,0.0,1.0,97,0.00,,,1.18,Wunderground v.1.15,2013-01-02 04:20:00,
2013-01-01 23:21:00,46.1,45.3,29.96,East,80,0.0,1.0,97,0.00,,,1.18,Wunderground v.1.15,2013-01-02 04:21:00,
2013-01-01 23:24:00,46.1,45.3,29.96,East,80,0.0,1.0,97,0.00,,,1.18,Wunderground v.1.15,2013-01-02 04:24:00,
2013-01-01 23:25:00,46.1,45.3,29.96,East,80,0.0,1.0,97,0.00,,,1.18,Wunderground v.1.15,2013-01-02 04:25:00,
2013-01-01 23:26:00,46.1,45.3,29.96,East,80,0.0,1.0,97,0.00,,,1.18,Wunderground v.1.15,2013-01-02 04:26:00,
2013-01-01 23:29:00,46.1,45.3,29.96,East,80,0.0,1.0,97,0.00,,,1.18,Wunderground v.1.15,2013-01-02 04:29:00,
2013-01-01 23:30:00,46.1,45.3,29.96,East,80,0.0,1.0,97,0.00,,,1.18,Wunderground v.1.15,2013-01-02 04:30:00,
2013-01-01 23:32:00,46.1,45.3,29.96,East,80,0.0,0.0,97,0.00,,,1.18,Wunderground v.1.15,2013-01-02 04:32:00,
2013-01-01 23:34:00,46.1,45.3,29.97,East,80,0.0,0.0,97,0.00,,,1.18,Wunderground v.1.15,2013-01-02 04:34:00,
2013-01-01 23:35:00,46.1,45.3,29.97,East,80,0.0,0.0,97,0.00,,,1.18,Wunderground v.1.15,2013-01-02 04:35:00,
2013-01-01 23:36:00,46.1,45.3,29.97,East,80,0.0,0.0,97,0.00,,,1.18,Wunderground v.1.15,2013-01-02 04:36:00,
2013-01-01 23:37:00,46.1,45.3,29.97,East,80,0.0,0.0,97,0.00,,,1.18,Wunderground v.1.15,2013-01-02 04:37:00,
2013-01-01 23:39:00,46.0,45.2,29.96,East,80,0.0,0.0,97,0.00,,,1.18,Wunderground v.1.15,2013-01-02 04:39:00,
2013-01-01 23:40:00,46.1,45.3,29.96,East,80,0.0,0.0,97,0.00,,,1.18,Wunderground v.1.15,2013-01-02 04:40:00,
2013-01-01 23:41:00,46.1,45.3,29.96,East,80,0.0,0.0,97,0.00,,,1.18,Wunderground v.1.15,2013-01-02 04:41:00,
2013-01-01 23:42:00,46.0,45.2,29.96,East,80,0.0,0.0,97,0.00,,,1.18,Wunderground v.1.15,2013-01-02 04:42:00,
2013-01-01 23:44:00,46.0,45.2,29.96,East,80,0.0,0.0,97,0.00,,,1.18,Wunderground v.1.15,2013-01-02 04:44:00,
2013-01-01 23:45:00,46.1,45.3,29.96,East,80,0.0,1.0,97,0.00,,,1.18,Wunderground v.1.15,2013-01-02 04:45:00,
2013-01-01 23:46:00,46.0,45.2,29.96,East,80,2.0,2.0,97,0.00,,,1.18,Wunderground v.1.15,2013-01-02 04:46:00,
2013-01-01 23:47:00,46.0,45.2,29.95,East,80,0.0,2.0,97,0.00,,,1.18,Wunderground v.1.15,2013-01-02 04:47:00,
2013-01-01 23:50:00,46.0,45.2,29.96,East,80,2.0,2.0,97,0.00,,,1.18,Wunderground v.1.15,2013-01-02 04:50:00,
2013-01-01 23:51:00,46.0,45.2,29.96,East,80,0.0,1.0,97,0.00,,,1.19,Wunderground v.1.15,2013-01-02 04:51:00,
2013-01-01 23:52:00,46.0,45.2,29.96,East,80,0.0,1.0,97,0.00,,,1.19,Wunderground v.1.15,2013-01-02 04:52:00,
2013-01-01 23:55:00,46.0,45.2,29.96,East,80,0.0,1.0,97,0.00,,,1.19,Wunderground v.1.15,2013-01-02 04:55:00,
2013-01-01 23:57:00,46.0,45.2,29.97,East,80,0.0,1.0,97,0.00,,,1.19,Wunderground v.1.15,2013-01-02 04:57:00,
2013-01-01 23:58:00,46.0,45.2,29.97,East,80,0.0,1.0,97,0.00,,,1.19,Wunderground v.1.15,2013-01-02 04:58:00,